Observation data for Colorado City on 08/14/2019      Previous  Date  Next       Current Mesonet Observations  Soil Data  Daily Summary Page  Observations in Plain Language
KCO2 140500Z 05013KT 30/21 A3003 RMK A01 T03040211  RH  057%=      5-min Rain = 0
KCO2 140501Z 05012KT 30/21 A3003 RMK A01 T03040211  RH  057%=      5-min Rain = 0
KCO2 140502Z 05011KT 30/21 A3003 RMK A01 T03040210  RH  058%=      5-min Rain = 0
KCO2 140503Z 05012KT 30/21 A3003 RMK A01 T03030210  RH  058%=      5-min Rain = 0
KCO2 140504Z 05013KT 30/21 A3003 RMK A01 T03030210  RH  058%=      5-min Rain = 0
KCO2 140505Z 05012KT 30/21 A3003 RMK A01 T03020210  RH  058%=      5-min Rain = 0
KCO2 140506Z 05014KT 30/21 A3003 RMK A01 T03030211  RH  058%=      5-min Rain = 0
KCO2 140507Z 05013KT 30/21 A3003 RMK A01 T03030210  RH  058%=      5-min Rain = 0
KCO2 140508Z 05012KT 30/21 A3003 RMK A01 T03020210  RH  058%=      5-min Rain = 0
KCO2 140509Z 04013KT 30/21 A3003 RMK A01 T03020210  RH  058%=      5-min Rain = 0
KCO2 140510Z 04014KT 30/21 A3003 RMK A01 T03020210  RH  058%=      5-min Rain = 0
KCO2 140524Z 05013KT 30/21 A3003 RMK A01 T02980209  RH  059%=      5-min Rain = 0
KCO2 140525Z 05015KT 30/21 A3003 RMK A01 T02980208  RH  059%=      5-min Rain = 0
KCO2 140526Z 05014KT 30/21 A3003 RMK A01 T02980209  RH  059%=      5-min Rain = 0
KCO2 140527Z 05012KT 30/21 A3003 RMK A01 T02980209  RH  059%=      5-min Rain = 0
KCO2 140528Z 05010G15KT 30/21 A3003 RMK A01 T02970209  RH  059%=      5-min Rain = 0
KCO2 140529Z 05012KT 30/21 A3003 RMK A01 T02970208  RH  059%=      5-min Rain = 0
KCO2 140530Z 05014G19KT 30/21 A3004 RMK A01 T02960208  RH  059%=      5-min Rain = 0
KCO2 140531Z 05013KT 30/21 A3004 RMK A01 T02960208  RH  059%=      5-min Rain = 0
KCO2 140532Z 05011KT 30/21 A3004 RMK A01 T02960208  RH  059%=      5-min Rain = 0
KCO2 140533Z 05013KT 30/21 A3004 RMK A01 T02960209  RH  059%=      5-min Rain = 0
KCO2 140534Z 05012KT 30/21 A3004 RMK A01 T02960208  RH  059%=      5-min Rain = 0
KCO2 140535Z 05015KT 30/21 A3004 RMK A01 T02950208  RH  060%=      5-min Rain = 0
KCO2 140536Z 06012KT 30/21 A3004 RMK A01 T02950208  RH  059%=      5-min Rain = 0
KCO2 140537Z 05012KT 30/21 A3004 RMK A01 T02950208  RH  059%=      5-min Rain = 0
KCO2 140538Z 06012KT 30/21 A3004 RMK A01 T02960208  RH  059%=      5-min Rain = 0
KCO2 140539Z 06013KT 30/21 A3004 RMK A01 T02950208  RH  059%=      5-min Rain = 0
KCO2 140540Z 06012KT 30/21 A3004 RMK A01 T02960208  RH  059%=      5-min Rain = 0
KCO2 140541Z 06015KT 30/21 A3004 RMK A01 T02950208  RH  059%=      5-min Rain = 0
KCO2 140542Z 05013KT 30/21 A3004 RMK A01 T02950208  RH  059%=      5-min Rain = 0
KCO2 140543Z 06013KT 30/21 A3004 RMK A01 T02950208  RH  059%=      5-min Rain = 0
KCO2 140544Z 06013KT 30/21 A3004 RMK A01 T02950207  RH  059%=      5-min Rain = 0
KCO2 140545Z 05012KT 30/21 A3004 RMK A01 T02950207  RH  059%=      5-min Rain = 0
KCO2 140546Z 05013KT 29/21 A3003 RMK A01 T02940207  RH  059%=      5-min Rain = 0
KCO2 140547Z 06013KT 30/21 A3003 RMK A01 T02950207  RH  059%=      5-min Rain = 0
KCO2 140548Z 05011KT 29/21 A3003 RMK A01 T02940207  RH  059%=      5-min Rain = 0
KCO2 140549Z 05013KT 29/21 A3003 RMK A01 T02940207  RH  060%=      5-min Rain = 0
KCO2 140550Z 06015KT 29/21 A3003 RMK A01 T02940207  RH  060%=      5-min Rain = 0
KCO2 140551Z 05012KT 29/21 A3003 RMK A01 T02940207  RH  059%=      5-min Rain = 0
KCO2 140552Z 05012KT 29/21 A3003 RMK A01 T02940207  RH  059%=      5-min Rain = 0
KCO2 140553Z 05011KT 29/21 A3003 RMK A01 T02930206  RH  060%=      5-min Rain = 0
KCO2 140554Z 06012KT 29/21 A3003 RMK A01 T02930207  RH  060%=      5-min Rain = 0
KCO2 140555Z 05013KT 29/21 A3004 RMK A01 T02930206  RH  060%=      5-min Rain = 0
KCO2 140556Z 06011KT 29/21 A3004 RMK A01 T02930207  RH  060%=      5-min Rain = 0
KCO2 140557Z 05010KT 29/21 A3004 RMK A01 T02920206  RH  060%=      5-min Rain = 0
KCO2 140558Z 05012KT 29/21 A3004 RMK A01 T02920206  RH  060%=      5-min Rain = 0
KCO2 140559Z 06013KT 29/21 A3004 RMK A01 T02920206  RH  060%=      5-min Rain = 0
KCO2 140600Z 05014KT 29/21 A3004 RMK A01 T02920206  RH  060%=      5-min Rain = 0
KCO2 140601Z 05013KT 29/21 A3004 RMK A01 T02920206  RH  060%=      5-min Rain = 0
KCO2 140602Z 05011KT 29/21 A3004 RMK A01 T02920206  RH  060%=      5-min Rain = 0
KCO2 140603Z 05011KT 29/21 A3004 RMK A01 T02920206  RH  060%=      5-min Rain = 0
KCO2 140604Z 06011KT 29/21 A3004 RMK A01 T02920206  RH  060%=      5-min Rain = 0
KCO2 140605Z 05010KT 29/21 A3004 RMK A01 T02920206  RH  060%=      5-min Rain = 0
KCO2 140606Z 05012G17KT 29/21 A3004 RMK A01 T02910206  RH  060%=      5-min Rain = 0
KCO2 140607Z 06013KT 29/21 A3004 RMK A01 T02910206  RH  060%=      5-min Rain = 0
KCO2 140608Z 05013KT 29/21 A3004 RMK A01 T02910206  RH  060%=      5-min Rain = 0
KCO2 140609Z 06012G17KT 29/21 A3004 RMK A01 T02910205  RH  060%=      5-min Rain = 0
KCO2 140610Z 06013KT 29/21 A3004 RMK A01 T02910205  RH  060%=      5-min Rain = 0
KCO2 140611Z 06012KT 29/21 A3004 RMK A01 T02910205  RH  060%=      5-min Rain = 0
KCO2 140612Z 06012KT 29/21 A3004 RMK A01 T02910205  RH  060%=      5-min Rain = 0
KCO2 140613Z 06011KT 29/21 A3004 RMK A01 T02910205  RH  060%=      5-min Rain = 0
KCO2 140614Z 06011KT 29/21 A3004 RMK A01 T02910205  RH  060%=      5-min Rain = 0
KCO2 140615Z 05011KT 29/21 A3004 RMK A01 T02910205  RH  060%=      5-min Rain = 0
KCO2 140616Z 05012KT 29/21 A3004 RMK A01 T02910205  RH  060%=      5-min Rain = 0
KCO2 140617Z 05013KT 29/21 A3004 RMK A01 T02910205  RH  060%=      5-min Rain = 0
KCO2 140618Z 05011KT 29/21 A3004 RMK A01 T02910205  RH  060%=      5-min Rain = 0
KCO2 140619Z 05013KT 29/21 A3003 RMK A01 T02900205  RH  060%=      5-min Rain = 0
KCO2 140620Z 05013KT 29/21 A3003 RMK A01 T02900205  RH  060%=      5-min Rain = 0
KCO2 140621Z 05013KT 29/21 A3003 RMK A01 T02900205  RH  060%=      5-min Rain = 0
KCO2 140622Z 05013KT 29/21 A3003 RMK A01 T02900205  RH  060%=      5-min Rain = 0
KCO2 140623Z 05013KT 29/20 A3003 RMK A01 T02900204  RH  060%=      5-min Rain = 0
KCO2 140624Z 05012KT 29/21 A3003 RMK A01 T02900205  RH  060%=      5-min Rain = 0
KCO2 140625Z 06011KT 29/20 A3003 RMK A01 T02890204  RH  060%=      5-min Rain = 0
KCO2 140626Z 05012KT 29/20 A3004 RMK A01 T02890204  RH  060%=      5-min Rain = 0
KCO2 140627Z 05014KT 29/20 A3004 RMK A01 T02890204  RH  060%=      5-min Rain = 0
KCO2 140628Z 05012KT 29/20 A3003 RMK A01 T02890204  RH  060%=      5-min Rain = 0
KCO2 140629Z 05013KT 29/20 A3003 RMK A01 T02890204  RH  060%=      5-min Rain = 0
KCO2 140630Z 05012KT 29/20 A3003 RMK A01 T02890204  RH  060%=      5-min Rain = 0
KCO2 140631Z 05012KT 29/20 A3003 RMK A01 T02890204  RH  060%=      5-min Rain = 0
KCO2 140632Z 05014KT 29/20 A3003 RMK A01 T02880204  RH  060%=      5-min Rain = 0
KCO2 140633Z 05014KT 29/20 A3003 RMK A01 T02880204  RH  060%=      5-min Rain = 0
KCO2 140634Z 06013KT 29/20 A3003 RMK A01 T02880204  RH  060%=      5-min Rain = 0
KCO2 140635Z 05014KT 29/20 A3003 RMK A01 T02880204  RH  060%=      5-min Rain = 0
KCO2 140636Z 05013KT 29/20 A3003 RMK A01 T02880204  RH  060%=      5-min Rain = 0
KCO2 140637Z 05013KT 29/20 A3003 RMK A01 T02880204  RH  060%=      5-min Rain = 0
KCO2 140638Z 05012KT 29/20 A3003 RMK A01 T02890204  RH  060%=      5-min Rain = 0
KCO2 140639Z 05016KT 29/20 A3003 RMK A01 T02880204  RH  060%=      5-min Rain = 0
KCO2 140640Z 06013KT 29/20 A3003 RMK A01 T02880204  RH  061%=      5-min Rain = 0
KCO2 140641Z 05012KT 29/20 A3003 RMK A01 T02880204  RH  060%=      5-min Rain = 0
KCO2 140642Z 05012KT 29/21 A3003 RMK A01 T02890205  RH  061%=      5-min Rain = 0
KCO2 140643Z 06011KT 29/21 A3003 RMK A01 T02880205  RH  061%=      5-min Rain = 0
KCO2 140644Z 06011KT 29/20 A3003 RMK A01 T02870204  RH  061%=      5-min Rain = 0
KCO2 140645Z 06012KT 29/21 A3003 RMK A01 T02870205  RH  061%=      5-min Rain = 0
KCO2 140646Z 06011G16KT 29/21 A3003 RMK A01 T02870205  RH  061%=      5-min Rain = 0
KCO2 140647Z 07012KT 29/21 A3003 RMK A01 T02870205  RH  061%=      5-min Rain = 0
KCO2 140648Z 06013KT 29/20 A3003 RMK A01 T02870204  RH  061%=      5-min Rain = 0
KCO2 140649Z 06010KT 29/21 A3003 RMK A01 T02870205  RH  061%=      5-min Rain = 0
KCO2 140650Z 06011KT 29/20 A3003 RMK A01 T02870204  RH  061%=      5-min Rain = 0
KCO2 140651Z 06012KT 29/20 A3003 RMK A01 T02870204  RH  061%=      5-min Rain = 0
KCO2 140652Z 06011KT 29/20 A3003 RMK A01 T02860204  RH  061%=      5-min Rain = 0
KCO2 140653Z 06011KT 29/20 A3003 RMK A01 T02860204  RH  061%=      5-min Rain = 0
KCO2 140654Z 06012KT 29/20 A3003 RMK A01 T02860204  RH  061%=      5-min Rain = 0
KCO2 140655Z 06011KT 29/20 A3003 RMK A01 T02850204  RH  061%=      5-min Rain = 0
KCO2 140656Z 05010KT 29/20 A3003 RMK A01 T02860204  RH  061%=      5-min Rain = 0
KCO2 140657Z 06009KT 29/20 A3003 RMK A01 T02850204  RH  061%=      5-min Rain = 0
KCO2 140658Z 06009KT 29/20 A3003 RMK A01 T02850204  RH  062%=      5-min Rain = 0
KCO2 140659Z 05009KT 29/20 A3003 RMK A01 T02850204  RH  062%=      5-min Rain = 0
KCO2 140700Z 06011KT 28/20 A3003 RMK A01 T02840204  RH  062%=      5-min Rain = 0
KCO2 140701Z 06011KT 28/21 A3003 RMK A01 T02840205  RH  062%=      5-min Rain = 0
KCO2 140702Z 05011KT 28/20 A3003 RMK A01 T02840204  RH  062%=      5-min Rain = 0
KCO2 140703Z 06009KT 28/20 A3003 RMK A01 T02840204  RH  062%=      5-min Rain = 0
KCO2 140704Z 06011KT 28/20 A3003 RMK A01 T02840204  RH  062%=      5-min Rain = 0
KCO2 140705Z 06011KT 28/20 A3003 RMK A01 T02840204  RH  062%=      5-min Rain = 0
KCO2 140706Z 06010KT 28/20 A3003 RMK A01 T02840204  RH  062%=      5-min Rain = 0
KCO2 140707Z 06009G14KT 28/20 A3003 RMK A01 T02840204  RH  062%=      5-min Rain = 0
KCO2 140708Z 06012KT 28/20 A3003 RMK A01 T02830204  RH  062%=      5-min Rain = 0
KCO2 140709Z 06012KT 28/20 A3003 RMK A01 T02830204  RH  062%=      5-min Rain = 0
KCO2 140710Z 06012KT 28/21 A3003 RMK A01 T02830205  RH  062%=      5-min Rain = 0
KCO2 140711Z 06012KT 28/20 A3003 RMK A01 T02830204  RH  062%=      5-min Rain = 0
KCO2 140712Z 05012KT 28/21 A3003 RMK A01 T02830205  RH  062%=      5-min Rain = 0
KCO2 140713Z 05012KT 28/21 A3003 RMK A01 T02830205  RH  062%=      5-min Rain = 0
KCO2 140714Z 06010KT 28/21 A3003 RMK A01 T02830205  RH  063%=      5-min Rain = 0
KCO2 140715Z 05011KT 28/21 A3003 RMK A01 T02820205  RH  063%=      5-min Rain = 0
KCO2 140716Z 05009KT 28/21 A3003 RMK A01 T02820205  RH  063%=      5-min Rain = 0
KCO2 140717Z 05011KT 28/21 A3003 RMK A01 T02810205  RH  063%=      5-min Rain = 0
KCO2 140718Z 06010KT 28/21 A3003 RMK A01 T02820205  RH  063%=      5-min Rain = 0
KCO2 140719Z 05011KT 28/21 A3003 RMK A01 T02810205  RH  063%=      5-min Rain = 0
KCO2 140720Z 05010KT 28/21 A3003 RMK A01 T02820206  RH  063%=      5-min Rain = 0
KCO2 140721Z 05008KT 28/21 A3003 RMK A01 T02810205  RH  063%=      5-min Rain = 0
KCO2 140722Z 05009KT 28/21 A3003 RMK A01 T02800205  RH  064%=      5-min Rain = 0
KCO2 140723Z 05012KT 28/21 A3003 RMK A01 T02800206  RH  064%=      5-min Rain = 0
KCO2 140724Z 06010KT 28/21 A3003 RMK A01 T02800206  RH  064%=      5-min Rain = 0
KCO2 140725Z 06011KT 28/21 A3003 RMK A01 T02800206  RH  064%=      5-min Rain = 0
KCO2 140726Z 06010KT 28/21 A3003 RMK A01 T02800206  RH  064%=      5-min Rain = 0
KCO2 140727Z 06010KT 28/21 A3003 RMK A01 T02800206  RH  064%=      5-min Rain = 0
KCO2 140728Z 06009KT 28/21 A3003 RMK A01 T02800206  RH  064%=      5-min Rain = 0
KCO2 140729Z 05010KT 28/21 A3003 RMK A01 T02800206  RH  064%=      5-min Rain = 0
KCO2 140730Z 06009KT 28/21 A3003 RMK A01 T02800206  RH  064%=      5-min Rain = 0
KCO2 140731Z 06009KT 28/21 A3003 RMK A01 T02790206  RH  064%=      5-min Rain = 0
KCO2 140732Z 05009KT 28/21 A3003 RMK A01 T02790206  RH  065%=      5-min Rain = 0
KCO2 140733Z 06008KT 28/21 A3003 RMK A01 T02790206  RH  065%=      5-min Rain = 0
KCO2 140734Z 06009KT 28/21 A3003 RMK A01 T02780206  RH  065%=      5-min Rain = 0
KCO2 140735Z 06008KT 28/21 A3003 RMK A01 T02780206  RH  065%=      5-min Rain = 0
KCO2 140736Z 06008KT 28/21 A3003 RMK A01 T02780206  RH  065%=      5-min Rain = 0
KCO2 140737Z 06012KT 28/21 A3003 RMK A01 T02780206  RH  065%=      5-min Rain = 0
KCO2 140738Z 06011KT 28/21 A3003 RMK A01 T02780206  RH  065%=      5-min Rain = 0
KCO2 140739Z 06008KT 28/21 A3003 RMK A01 T02780206  RH  065%=      5-min Rain = 0
KCO2 140740Z 06012KT 28/21 A3003 RMK A01 T02780207  RH  065%=      5-min Rain = 0
KCO2 140741Z 05011KT 28/21 A3003 RMK A01 T02780207  RH  065%=      5-min Rain = 0
KCO2 140742Z 06011KT 28/21 A3003 RMK A01 T02780207  RH  065%=      5-min Rain = 0
KCO2 140743Z 05009KT 28/21 A3003 RMK A01 T02780207  RH  065%=      5-min Rain = 0
KCO2 140744Z 06010KT 28/21 A3003 RMK A01 T02780207  RH  065%=      5-min Rain = 0
KCO2 140745Z 05009KT 28/21 A3003 RMK A01 T02780207  RH  065%=      5-min Rain = 0
KCO2 140746Z 05009KT 28/21 A3003 RMK A01 T02770207  RH  065%=      5-min Rain = 0
KCO2 140747Z 05008KT 28/21 A3003 RMK A01 T02770207  RH  066%=      5-min Rain = 0
KCO2 140748Z 05008KT 28/21 A3003 RMK A01 T02760207  RH  066%=      5-min Rain = 0
KCO2 140749Z 05009KT 28/21 A3003 RMK A01 T02760207  RH  066%=      5-min Rain = 0
KCO2 140750Z 05009KT 28/21 A3003 RMK A01 T02770207  RH  066%=      5-min Rain = 0
KCO2 140751Z 05009KT 28/21 A3003 RMK A01 T02760207  RH  066%=      5-min Rain = 0
KCO2 140752Z 05007KT 28/21 A3003 RMK A01 T02760207  RH  066%=      5-min Rain = 0
KCO2 140753Z 05008KT 28/21 A3003 RMK A01 T02760207  RH  066%=      5-min Rain = 0
KCO2 140754Z 05008KT 28/21 A3003 RMK A01 T02760207  RH  066%=      5-min Rain = 0
KCO2 140755Z 05008KT 28/21 A3003 RMK A01 T02760207  RH  066%=      5-min Rain = 0
KCO2 140756Z 05009KT 28/21 A3003 RMK A01 T02750206  RH  066%=      5-min Rain = 0
KCO2 140757Z 05008KT 28/21 A3003 RMK A01 T02750207  RH  066%=      5-min Rain = 0
KCO2 140758Z 04007KT 28/21 A3003 RMK A01 T02750206  RH  066%=      5-min Rain = 0
KCO2 140759Z 04009KT 27/21 A3003 RMK A01 T02740206  RH  066%=      5-min Rain = 0
KCO2 140800Z 04008KT 27/21 A3003 RMK A01 T02740206  RH  066%=      5-min Rain = 0
KCO2 140801Z 03007KT 27/21 A3003 RMK A01 T02740206  RH  066%=      5-min Rain = 0
KCO2 140802Z 03008KT 27/21 A3003 RMK A01 T02740206  RH  067%=      5-min Rain = 0
KCO2 140803Z 03010KT 27/21 A3003 RMK A01 T02740206  RH  067%=      5-min Rain = 0
KCO2 140804Z 04011KT 27/21 A3003 RMK A01 T02730206  RH  067%=      5-min Rain = 0
KCO2 140805Z 04009KT 27/21 A3003 RMK A01 T02730206  RH  067%=      5-min Rain = 0
KCO2 140806Z 04009KT 27/21 A3004 RMK A01 T02730206  RH  067%=      5-min Rain = 0
KCO2 140807Z 04010KT 27/21 A3004 RMK A01 T02730206  RH  067%=      5-min Rain = 0
KCO2 140808Z 04010KT 27/21 A3004 RMK A01 T02730206  RH  067%=      5-min Rain = 0
KCO2 140809Z 05009KT 27/21 A3004 RMK A01 T02730206  RH  067%=      5-min Rain = 0
KCO2 140810Z 05013KT 27/21 A3004 RMK A01 T02730207  RH  067%=      5-min Rain = 0
KCO2 140811Z 05011KT 27/21 A3004 RMK A01 T02730207  RH  067%=      5-min Rain = 0
KCO2 140812Z 05009KT 27/21 A3004 RMK A01 T02730207  RH  067%=      5-min Rain = 0
KCO2 140813Z 04011KT 27/21 A3004 RMK A01 T02730207  RH  067%=      5-min Rain = 0
KCO2 140814Z 04009KT 27/21 A3004 RMK A01 T02730208  RH  067%=      5-min Rain = 0
KCO2 140815Z 05008KT 27/21 A3004 RMK A01 T02730207  RH  067%=      5-min Rain = 0
KCO2 140816Z 05008KT 27/21 A3004 RMK A01 T02720207  RH  068%=      5-min Rain = 0
KCO2 140817Z 04009KT 27/21 A3004 RMK A01 T02720207  RH  068%=      5-min Rain = 0
KCO2 140818Z 04011KT 27/21 A3004 RMK A01 T02710207  RH  068%=      5-min Rain = 0
KCO2 140819Z 05009KT 27/21 A3004 RMK A01 T02710207  RH  068%=      5-min Rain = 0
KCO2 140820Z 04008KT 27/21 A3004 RMK A01 T02710207  RH  068%=      5-min Rain = 0
KCO2 140821Z 04010KT 27/21 A3004 RMK A01 T02710207  RH  068%=      5-min Rain = 0
KCO2 140822Z 05011KT 27/21 A3004 RMK A01 T02700207  RH  068%=      5-min Rain = 0
KCO2 140823Z 04010KT 27/21 A3004 RMK A01 T02710207  RH  068%=      5-min Rain = 0
KCO2 140824Z 04010KT 27/21 A3004 RMK A01 T02710207  RH  068%=      5-min Rain = 0
KCO2 140825Z 04010KT 27/21 A3004 RMK A01 T02700207  RH  068%=      5-min Rain = 0
KCO2 140826Z 05010KT 27/21 A3004 RMK A01 T02700207  RH  068%=      5-min Rain = 0
KCO2 140827Z 04011KT 27/21 A3004 RMK A01 T02700207  RH  069%=      5-min Rain = 0
KCO2 140828Z 04012KT 27/21 A3004 RMK A01 T02700208  RH  069%=      5-min Rain = 0
KCO2 140829Z 04014KT 27/21 A3004 RMK A01 T02700207  RH  068%=      5-min Rain = 0
KCO2 140830Z 04012KT 27/21 A3004 RMK A01 T02700207  RH  068%=      5-min Rain = 0
KCO2 140831Z 04011KT 27/21 A3004 RMK A01 T02700207  RH  068%=      5-min Rain = 0
KCO2 140832Z 04012KT 27/21 A3004 RMK A01 T02700207  RH  068%=      5-min Rain = 0
KCO2 140833Z 04011KT 27/21 A3004 RMK A01 T02700207  RH  068%=      5-min Rain = 0
KCO2 140834Z 04013KT 27/21 A3004 RMK A01 T02700207  RH  068%=      5-min Rain = 0
KCO2 140835Z 04013KT 27/21 A3004 RMK A01 T02700206  RH  068%=      5-min Rain = 0
KCO2 140836Z 04011KT 27/21 A3004 RMK A01 T02710207  RH  068%=      5-min Rain = 0
KCO2 140837Z 04010KT 27/21 A3004 RMK A01 T02710207  RH  068%=      5-min Rain = 0
KCO2 140838Z 04009G15KT 27/21 A3004 RMK A01 T02700207  RH  068%=      5-min Rain = 0
KCO2 140839Z 04010KT 27/21 A3004 RMK A01 T02700207  RH  068%=      5-min Rain = 0
KCO2 140840Z 05010KT 27/21 A3004 RMK A01 T02700207  RH  068%=      5-min Rain = 0
KCO2 140841Z 04014KT 27/21 A3004 RMK A01 T02700207  RH  068%=      5-min Rain = 0
KCO2 140842Z 05010KT 27/21 A3004 RMK A01 T02700206  RH  068%=      5-min Rain = 0
KCO2 140843Z 05010KT 27/21 A3004 RMK A01 T02700206  RH  068%=      5-min Rain = 0
KCO2 140844Z 05010KT 27/21 A3004 RMK A01 T02700206  RH  068%=      5-min Rain = 0
KCO2 140845Z 05009KT 27/21 A3004 RMK A01 T02700206  RH  068%=      5-min Rain = 0
KCO2 140846Z 04014KT 27/21 A3004 RMK A01 T02700206  RH  068%=      5-min Rain = 0
KCO2 140847Z 05011KT 27/21 A3004 RMK A01 T02700206  RH  068%=      5-min Rain = 0
KCO2 140848Z 05012KT 27/21 A3004 RMK A01 T02700205  RH  068%=      5-min Rain = 0
KCO2 140849Z 05011KT 27/21 A3004 RMK A01 T02700205  RH  068%=      5-min Rain = 0
KCO2 140850Z 05012KT 27/21 A3004 RMK A01 T02700205  RH  068%=      5-min Rain = 0
KCO2 140851Z 05011KT 27/21 A3004 RMK A01 T02700206  RH  068%=      5-min Rain = 0
KCO2 140852Z 05014KT 27/21 A3004 RMK A01 T02700206  RH  068%=      5-min Rain = 0
KCO2 140853Z 05013KT 27/21 A3004 RMK A01 T02700205  RH  068%=      5-min Rain = 0
KCO2 140854Z 05012KT 27/21 A3004 RMK A01 T02700205  RH  068%=      5-min Rain = 0
KCO2 140855Z 05012KT 27/21 A3004 RMK A01 T02700206  RH  068%=      5-min Rain = 0
KCO2 140856Z 05011KT 27/21 A3004 RMK A01 T02700205  RH  068%=      5-min Rain = 0
KCO2 140857Z 05011KT 27/21 A3004 RMK A01 T02700205  RH  068%=      5-min Rain = 0
KCO2 140858Z 05011KT 27/21 A3004 RMK A01 T02700205  RH  068%=      5-min Rain = 0
KCO2 140859Z 05011KT 27/21 A3004 RMK A01 T02690205  RH  068%=      5-min Rain = 0
KCO2 140900Z 05009KT 27/21 A3003 RMK A01 T02690205  RH  068%=      5-min Rain = 0
KCO2 140901Z 04009KT 27/21 A3003 RMK A01 T02690205  RH  068%=      5-min Rain = 0
KCO2 140902Z 05009KT 27/21 A3003 RMK A01 T02680205  RH  068%=      5-min Rain = 0
KCO2 140903Z 04008KT 27/21 A3003 RMK A01 T02680205  RH  068%=      5-min Rain = 0
KCO2 140904Z 04009KT 27/21 A3003 RMK A01 T02670205  RH  069%=      5-min Rain = 0
KCO2 140905Z 05008KT 27/21 A3003 RMK A01 T02670205  RH  069%=      5-min Rain = 0
KCO2 140906Z 05008KT 27/21 A3003 RMK A01 T02670205  RH  069%=      5-min Rain = 0
KCO2 140907Z 05010KT 27/21 A3003 RMK A01 T02660205  RH  069%=      5-min Rain = 0
KCO2 140908Z 05012KT 27/21 A3003 RMK A01 T02670205  RH  069%=      5-min Rain = 0
KCO2 140909Z 05011KT 27/21 A3003 RMK A01 T02660205  RH  069%=      5-min Rain = 0
KCO2 140910Z 05009KT 27/21 A3003 RMK A01 T02660205  RH  069%=      5-min Rain = 0
KCO2 140911Z 05009KT 27/21 A3003 RMK A01 T02660205  RH  069%=      5-min Rain = 0
KCO2 140912Z 05009KT 27/21 A3003 RMK A01 T02660205  RH  069%=      5-min Rain = 0
KCO2 140913Z 06010KT 27/21 A3003 RMK A01 T02650205  RH  069%=      5-min Rain = 0
KCO2 140914Z 05012KT 27/21 A3003 RMK A01 T02650205  RH  069%=      5-min Rain = 0
KCO2 140915Z 05011KT 27/21 A3003 RMK A01 T02650205  RH  069%=      5-min Rain = 0
KCO2 140916Z 05010KT 27/21 A3003 RMK A01 T02650205  RH  069%=      5-min Rain = 0
KCO2 140917Z 05009KT 27/21 A3003 RMK A01 T02650205  RH  069%=      5-min Rain = 0
KCO2 140918Z 05012KT 26/21 A3003 RMK A01 T02640205  RH  070%=      5-min Rain = 0
KCO2 140919Z 05010KT 26/21 A3003 RMK A01 T02640205  RH  070%=      5-min Rain = 0
KCO2 140920Z 04011KT 26/21 A3003 RMK A01 T02640205  RH  070%=      5-min Rain = 0
KCO2 140921Z 05012KT 26/21 A3003 RMK A01 T02630205  RH  070%=      5-min Rain = 0
KCO2 140922Z 05012KT 26/21 A3004 RMK A01 T02630205  RH  070%=      5-min Rain = 0
KCO2 140923Z 05013KT 26/21 A3004 RMK A01 T02640206  RH  070%=      5-min Rain = 0
KCO2 140924Z 04012KT 26/21 A3004 RMK A01 T02640206  RH  070%=      5-min Rain = 0
KCO2 140925Z 05013KT 26/21 A3004 RMK A01 T02640206  RH  070%=      5-min Rain = 0
KCO2 140926Z 04013KT 26/21 A3004 RMK A01 T02630206  RH  071%=      5-min Rain = 0
KCO2 140927Z 04014KT 26/21 A3004 RMK A01 T02630206  RH  071%=      5-min Rain = 0
KCO2 140928Z 04012KT 26/21 A3004 RMK A01 T02630206  RH  071%=      5-min Rain = 0
KCO2 140929Z 04014KT 26/21 A3004 RMK A01 T02630206  RH  071%=      5-min Rain = 0
KCO2 140930Z 04013KT 26/21 A3004 RMK A01 T02630206  RH  071%=      5-min Rain = 0
KCO2 140931Z 05013KT 26/21 A3004 RMK A01 T02630206  RH  071%=      5-min Rain = 0
KCO2 140932Z 04014KT 26/21 A3004 RMK A01 T02630206  RH  071%=      5-min Rain = 0
KCO2 140933Z 05014KT 26/21 A3004 RMK A01 T02630206  RH  071%=      5-min Rain = 0
KCO2 140934Z 04011KT 26/21 A3004 RMK A01 T02630206  RH  071%=      5-min Rain = 0
KCO2 140935Z 04013G18KT 26/21 A3004 RMK A01 T02630206  RH  071%=      5-min Rain = 0
KCO2 140936Z 04012KT 26/21 A3004 RMK A01 T02620206  RH  071%=      5-min Rain = 0
KCO2 140937Z 04014KT 26/21 A3004 RMK A01 T02620206  RH  071%=      5-min Rain = 0
KCO2 140938Z 04012KT 26/21 A3004 RMK A01 T02620206  RH  071%=      5-min Rain = 0
KCO2 140939Z 06010KT 26/21 A3004 RMK A01 T02620206  RH  071%=      5-min Rain = 0
KCO2 140940Z 04010KT 26/21 A3004 RMK A01 T02620206  RH  071%=      5-min Rain = 0
KCO2 140941Z 05012KT 26/21 A3004 RMK A01 T02620206  RH  071%=      5-min Rain = 0
KCO2 140942Z 05015KT 26/21 A3004 RMK A01 T02610205  RH  071%=      5-min Rain = 0
KCO2 140943Z 05013KT 26/21 A3004 RMK A01 T02620205  RH  071%=      5-min Rain = 0
KCO2 140944Z 04015KT 26/21 A3004 RMK A01 T02620205  RH  071%=      5-min Rain = 0
KCO2 140945Z 04014KT 26/21 A3004 RMK A01 T02620205  RH  071%=      5-min Rain = 0
KCO2 140946Z 05013KT 26/21 A3004 RMK A01 T02620205  RH  071%=      5-min Rain = 0
KCO2 140947Z 05012KT 26/21 A3004 RMK A01 T02620205  RH  071%=      5-min Rain = 0
KCO2 140948Z 05012KT 26/21 A3004 RMK A01 T02620205  RH  071%=      5-min Rain = 0
KCO2 140949Z 05012KT 26/21 A3004 RMK A01 T02610205  RH  071%=      5-min Rain = 0
KCO2 140950Z 05015KT 26/21 A3004 RMK A01 T02610205  RH  071%=      5-min Rain = 0
KCO2 140951Z 05015KT 26/21 A3003 RMK A01 T02610205  RH  071%=      5-min Rain = 0
KCO2 140952Z 05012KT 26/20 A3003 RMK A01 T02610204  RH  071%=      5-min Rain = 0
KCO2 140953Z 05010G15KT 26/20 A3003 RMK A01 T02610204  RH  071%=      5-min Rain = 0
KCO2 140954Z 05011KT 26/21 A3003 RMK A01 T02610205  RH  071%=      5-min Rain = 0
KCO2 140955Z 05014KT 26/20 A3003 RMK A01 T02610204  RH  071%=      5-min Rain = 0
KCO2 140956Z 05014KT 26/20 A3004 RMK A01 T02610204  RH  071%=      5-min Rain = 0
KCO2 140957Z 05012KT 26/20 A3004 RMK A01 T02610204  RH  071%=      5-min Rain = 0
KCO2 140958Z 05012KT 26/20 A3004 RMK A01 T02610204  RH  071%=      5-min Rain = 0
KCO2 140959Z 05012KT 26/20 A3003 RMK A01 T02610204  RH  071%=      5-min Rain = 0
KCO2 141000Z 05011KT 26/20 A3003 RMK A01 T02600204  RH  071%=      5-min Rain = 0
KCO2 141001Z 06011KT 26/20 A3003 RMK A01 T02600204  RH  071%=      5-min Rain = 0
KCO2 141002Z 05011KT 26/20 A3003 RMK A01 T02600204  RH  071%=      5-min Rain = 0
KCO2 141003Z 05012KT 26/20 A3003 RMK A01 T02600204  RH  071%=      5-min Rain = 0
KCO2 141004Z 06012KT 26/20 A3003 RMK A01 T02600204  RH  071%=      5-min Rain = 0
KCO2 141005Z 05010KT 26/20 A3003 RMK A01 T02600204  RH  071%=      5-min Rain = 0
KCO2 141006Z 06009KT 26/20 A3003 RMK A01 T02590204  RH  071%=      5-min Rain = 0
KCO2 141007Z 05010KT 26/20 A3003 RMK A01 T02590204  RH  072%=      5-min Rain = 0
KCO2 141008Z 06011KT 26/20 A3003 RMK A01 T02590204  RH  072%=      5-min Rain = 0
KCO2 141009Z 06012KT 26/20 A3003 RMK A01 T02590204  RH  072%=      5-min Rain = 0
KCO2 141010Z 06011KT 26/20 A3003 RMK A01 T02590204  RH  072%=      5-min Rain = 0
KCO2 141011Z 06013KT 26/20 A3003 RMK A01 T02590204  RH  072%=      5-min Rain = 0
KCO2 141012Z 05012KT 26/20 A3003 RMK A01 T02590203  RH  072%=      5-min Rain = 0
KCO2 141013Z 06013KT 26/20 A3003 RMK A01 T02590203  RH  072%=      5-min Rain = 0
KCO2 141014Z 05011KT 26/20 A3003 RMK A01 T02590203  RH  072%=      5-min Rain = 0
KCO2 141015Z 05009KT 26/20 A3003 RMK A01 T02580203  RH  072%=      5-min Rain = 0
KCO2 141016Z 05011KT 26/20 A3004 RMK A01 T02580204  RH  072%=      5-min Rain = 0
KCO2 141017Z 05011KT 26/20 A3004 RMK A01 T02580203  RH  072%=      5-min Rain = 0
KCO2 141018Z 05012KT 26/20 A3004 RMK A01 T02580204  RH  072%=      5-min Rain = 0
KCO2 141019Z 05010KT 26/20 A3004 RMK A01 T02580203  RH  072%=      5-min Rain = 0
KCO2 141020Z 05011KT 26/20 A3004 RMK A01 T02580204  RH  072%=      5-min Rain = 0
KCO2 141021Z 05010KT 26/20 A3004 RMK A01 T02580203  RH  072%=      5-min Rain = 0
KCO2 141022Z 05011KT 26/20 A3004 RMK A01 T02580204  RH  072%=      5-min Rain = 0
KCO2 141023Z 05010KT 26/20 A3004 RMK A01 T02570203  RH  072%=      5-min Rain = 0
KCO2 141024Z 05010KT 26/20 A3004 RMK A01 T02570203  RH  072%=      5-min Rain = 0
KCO2 141025Z 05010KT 26/20 A3004 RMK A01 T02570203  RH  072%=      5-min Rain = 0
KCO2 141026Z 05010KT 26/20 A3004 RMK A01 T02570204  RH  072%=      5-min Rain = 0
KCO2 141027Z 05008KT 26/20 A3004 RMK A01 T02570203  RH  072%=      5-min Rain = 0
KCO2 141028Z 05010KT 26/20 A3004 RMK A01 T02570203  RH  072%=      5-min Rain = 0
KCO2 141029Z 05010KT 26/20 A3005 RMK A01 T02570203  RH  072%=      5-min Rain = 0
KCO2 141030Z 05011KT 26/20 A3005 RMK A01 T02570203  RH  072%=      5-min Rain = 0
KCO2 141031Z 06010KT 26/20 A3005 RMK A01 T02570203  RH  072%=      5-min Rain = 0
KCO2 141032Z 05010KT 26/20 A3005 RMK A01 T02570203  RH  072%=      5-min Rain = 0
KCO2 141033Z 05010KT 26/20 A3005 RMK A01 T02570203  RH  072%=      5-min Rain = 0
KCO2 141034Z 05009KT 26/20 A3005 RMK A01 T02570204  RH  072%=      5-min Rain = 0
KCO2 141035Z 05009KT 26/20 A3005 RMK A01 T02570204  RH  072%=      5-min Rain = 0
KCO2 141036Z 05010KT 26/20 A3005 RMK A01 T02570204  RH  072%=      5-min Rain = 0
KCO2 141037Z 05010KT 26/20 A3005 RMK A01 T02560203  RH  072%=      5-min Rain = 0
KCO2 141038Z 05012KT 26/20 A3005 RMK A01 T02560203  RH  073%=      5-min Rain = 0
KCO2 141039Z 05011KT 26/20 A3005 RMK A01 T02560203  RH  073%=      5-min Rain = 0
KCO2 141040Z 05011KT 26/20 A3005 RMK A01 T02560203  RH  072%=      5-min Rain = 0
KCO2 141041Z 05011KT 26/20 A3005 RMK A01 T02560203  RH  072%=      5-min Rain = 0
KCO2 141042Z 05010KT 26/20 A3005 RMK A01 T02560203  RH  072%=      5-min Rain = 0
KCO2 141043Z 05008KT 26/20 A3005 RMK A01 T02560204  RH  073%=      5-min Rain = 0
KCO2 141044Z 05011KT 26/20 A3005 RMK A01 T02560203  RH  073%=      5-min Rain = 0
KCO2 141045Z 05012KT 26/20 A3005 RMK A01 T02560203  RH  073%=      5-min Rain = 0
KCO2 141046Z 05011KT 26/20 A3005 RMK A01 T02560203  RH  073%=      5-min Rain = 0
KCO2 141047Z 05011KT 26/20 A3005 RMK A01 T02550203  RH  073%=      5-min Rain = 0
KCO2 141048Z 05011KT 26/20 A3006 RMK A01 T02550204  RH  073%=      5-min Rain = 0
KCO2 141049Z 05012KT 26/20 A3006 RMK A01 T02550204  RH  073%=      5-min Rain = 0
KCO2 141050Z 05011KT 26/20 A3006 RMK A01 T02550203  RH  073%=      5-min Rain = 0
KCO2 141051Z 05011KT 26/20 A3006 RMK A01 T02550204  RH  073%=      5-min Rain = 0
KCO2 141052Z 05009KT 26/20 A3006 RMK A01 T02550203  RH  073%=      5-min Rain = 0
KCO2 141053Z 05011KT 26/20 A3006 RMK A01 T02550204  RH  073%=      5-min Rain = 0
KCO2 141054Z 06011KT 25/20 A3006 RMK A01 T02540203  RH  073%=      5-min Rain = 0
KCO2 141055Z 05011KT 25/20 A3006 RMK A01 T02540203  RH  074%=      5-min Rain = 0
KCO2 141056Z 06008KT 25/20 A3005 RMK A01 T02540203  RH  073%=      5-min Rain = 0
KCO2 141057Z 06009KT 25/20 A3005 RMK A01 T02540203  RH  074%=      5-min Rain = 0
KCO2 141058Z 05010KT 25/20 A3005 RMK A01 T02530203  RH  074%=      5-min Rain = 0
KCO2 141059Z 06010KT 25/20 A3005 RMK A01 T02530203  RH  074%=      5-min Rain = 0
KCO2 141100Z 05013KT 25/20 A3006 RMK A01 T02540204  RH  074%=      5-min Rain = 0
KCO2 141101Z 05010KT 25/20 A3006 RMK A01 T02530203  RH  074%=      5-min Rain = 0
KCO2 141102Z 05011KT 25/20 A3006 RMK A01 T02530203  RH  074%=      5-min Rain = 0
KCO2 141103Z 05013KT 25/20 A3006 RMK A01 T02540204  RH  074%=      5-min Rain = 0
KCO2 141104Z 05010KT 25/20 A3006 RMK A01 T02540203  RH  074%=      5-min Rain = 0
KCO2 141105Z 05010KT 25/20 A3006 RMK A01 T02540203  RH  074%=      5-min Rain = 0
KCO2 141106Z 06010KT 25/20 A3006 RMK A01 T02540204  RH  074%=      5-min Rain = 0
KCO2 141107Z 06011KT 25/20 A3006 RMK A01 T02530203  RH  074%=      5-min Rain = 0
KCO2 141108Z 05009KT 25/20 A3006 RMK A01 T02540204  RH  074%=      5-min Rain = 0
KCO2 141109Z 05011KT 25/20 A3006 RMK A01 T02530203  RH  074%=      5-min Rain = 0
KCO2 141110Z 05010KT 25/20 A3006 RMK A01 T02530203  RH  074%=      5-min Rain = 0
KCO2 141111Z 05012KT 25/20 A3006 RMK A01 T02530203  RH  074%=      5-min Rain = 0
KCO2 141112Z 04010KT 25/20 A3006 RMK A01 T02520203  RH  074%=      5-min Rain = 0
KCO2 141113Z 05010KT 25/20 A3006 RMK A01 T02530203  RH  074%=      5-min Rain = 0
KCO2 141114Z 05011KT 25/20 A3007 RMK A01 T02520203  RH  074%=      5-min Rain = 0
KCO2 141115Z 05011KT 25/20 A3007 RMK A01 T02520202  RH  074%=      5-min Rain = 0
KCO2 141116Z 04010KT 25/20 A3007 RMK A01 T02520202  RH  074%=      5-min Rain = 0
KCO2 141117Z 05013KT 25/20 A3007 RMK A01 T02520202  RH  074%=      5-min Rain = 0
KCO2 141118Z 05011G16KT 25/20 A3007 RMK A01 T02520202  RH  074%=      5-min Rain = 0
KCO2 141119Z 05013KT 25/20 A3007 RMK A01 T02520202  RH  074%=      5-min Rain = 0
KCO2 141120Z 05010KT 25/20 A3007 RMK A01 T02520202  RH  074%=      5-min Rain = 0
KCO2 141121Z 05011KT 25/20 A3007 RMK A01 T02520202  RH  074%=      5-min Rain = 0
KCO2 141122Z 05010KT 25/20 A3007 RMK A01 T02520202  RH  074%=      5-min Rain = 0
KCO2 141123Z 05011KT 25/20 A3007 RMK A01 T02520202  RH  074%=      5-min Rain = 0
KCO2 141124Z 05011KT 25/20 A3007 RMK A01 T02510202  RH  074%=      5-min Rain = 0
KCO2 141125Z 05012KT 25/20 A3007 RMK A01 T02510202  RH  074%=      5-min Rain = 0
KCO2 141126Z 05012KT 25/20 A3007 RMK A01 T02510202  RH  074%=      5-min Rain = 0
KCO2 141127Z 05011G16KT 25/20 A3007 RMK A01 T02510202  RH  074%=      5-min Rain = 0
KCO2 141128Z 05012KT 25/20 A3007 RMK A01 T02510202  RH  074%=      5-min Rain = 0
KCO2 141129Z 05011KT 25/20 A3007 RMK A01 T02520202  RH  074%=      5-min Rain = 0
KCO2 141130Z 05012KT 25/20 A3007 RMK A01 T02510202  RH  074%=      5-min Rain = 0
KCO2 141131Z 05012KT 25/20 A3007 RMK A01 T02510202  RH  074%=      5-min Rain = 0
KCO2 141132Z 04009KT 25/20 A3007 RMK A01 T02510202  RH  074%=      5-min Rain = 0
KCO2 141133Z 04011KT 25/20 A3007 RMK A01 T02500202  RH  074%=      5-min Rain = 0
KCO2 141134Z 04011KT 25/20 A3008 RMK A01 T02500201  RH  074%=      5-min Rain = 0
KCO2 141135Z 04010KT 25/20 A3008 RMK A01 T02500202  RH  075%=      5-min Rain = 0
KCO2 141136Z 04012KT 25/20 A3008 RMK A01 T02500201  RH  075%=      5-min Rain = 0
KCO2 141137Z 04015KT 25/20 A3008 RMK A01 T02490201  RH  075%=      5-min Rain = 0
KCO2 141138Z 04013KT 25/20 A3008 RMK A01 T02490201  RH  075%=      5-min Rain = 0
KCO2 141139Z 04012KT 25/20 A3008 RMK A01 T02490201  RH  074%=      5-min Rain = 0
KCO2 141140Z 04010KT 25/20 A3008 RMK A01 T02490201  RH  074%=      5-min Rain = 0
KCO2 141141Z 04009KT 25/20 A3008 RMK A01 T02490201  RH  075%=      5-min Rain = 0
KCO2 141142Z 04012KT 25/20 A3008 RMK A01 T02490201  RH  075%=      5-min Rain = 0
KCO2 141143Z 04012KT 25/20 A3008 RMK A01 T02480201  RH  075%=      5-min Rain = 0
KCO2 141144Z 05011KT 25/20 A3008 RMK A01 T02480201  RH  075%=      5-min Rain = 0
KCO2 141145Z 05009KT 25/20 A3008 RMK A01 T02480200  RH  075%=      5-min Rain = 0
KCO2 141146Z 04013KT 25/20 A3008 RMK A01 T02480200  RH  075%=      5-min Rain = 0
KCO2 141147Z 05013KT 25/20 A3008 RMK A01 T02470200  RH  075%=      5-min Rain = 0
KCO2 141148Z 04010KT 25/20 A3008 RMK A01 T02470200  RH  075%=      5-min Rain = 0
KCO2 141149Z 04013KT 25/20 A3008 RMK A01 T02480200  RH  075%=      5-min Rain = 0
KCO2 141150Z 04012KT 25/20 A3008 RMK A01 T02470200  RH  075%=      5-min Rain = 0
KCO2 141151Z 04013KT 25/20 A3008 RMK A01 T02470200  RH  075%=      5-min Rain = 0
KCO2 141152Z 04013KT 25/20 A3008 RMK A01 T02470200  RH  075%=      5-min Rain = 0
KCO2 141153Z 04014KT 25/20 A3008 RMK A01 T02470199  RH  075%=      5-min Rain = 0
KCO2 141154Z 04015KT 25/20 A3008 RMK A01 T02470200  RH  075%=      5-min Rain = 0
KCO2 141155Z 04012KT 25/20 A3008 RMK A01 T02470199  RH  075%=      5-min Rain = 0
KCO2 141156Z 04013KT 25/20 A3008 RMK A01 T02460199  RH  075%=      5-min Rain = 0
KCO2 141157Z 04015KT 25/20 A3008 RMK A01 T02470199  RH  075%=      5-min Rain = 0
KCO2 141158Z 04014KT 25/20 A3008 RMK A01 T02470199  RH  075%=      5-min Rain = 0
KCO2 141159Z 04013KT 25/20 A3008 RMK A01 T02470199  RH  075%=      5-min Rain = 0
KCO2 141200Z 04012KT 25/20 A3008 RMK A01 T02470199  RH  075%=      5-min Rain = 0
KCO2 141201Z 04016KT 25/20 A3008 RMK A01 T02460199  RH  075%=      5-min Rain = 0
KCO2 141202Z 04015KT 25/20 A3008 RMK A01 T02460199  RH  075%=      5-min Rain = 0
KCO2 141203Z 04013KT 25/20 A3008 RMK A01 T02460199  RH  075%=      5-min Rain = 0
KCO2 141204Z 04012KT 25/20 A3008 RMK A01 T02460199  RH  075%=      5-min Rain = 0
KCO2 141205Z 04014KT 25/20 A3008 RMK A01 T02460199  RH  075%=      5-min Rain = 0
KCO2 141206Z 05010KT 25/20 A3008 RMK A01 T02460199  RH  075%=      5-min Rain = 0
KCO2 141207Z 05012KT 25/20 A3008 RMK A01 T02450199  RH  075%=      5-min Rain = 0
KCO2 141208Z 05014KT 25/20 A3008 RMK A01 T02450199  RH  075%=      5-min Rain = 0
KCO2 141209Z 05014G19KT 25/20 A3008 RMK A01 T02450199  RH  075%=      5-min Rain = 0
KCO2 141210Z 05012KT 25/20 A3008 RMK A01 T02450199  RH  075%=      5-min Rain = 0
KCO2 141211Z 05015KT 25/20 A3008 RMK A01 T02450199  RH  075%=      5-min Rain = 0
KCO2 141212Z 05015KT 25/20 A3008 RMK A01 T02450199  RH  075%=      5-min Rain = 0
KCO2 141213Z 04014KT 25/20 A3008 RMK A01 T02450199  RH  075%=      5-min Rain = 0
KCO2 141214Z 04011KT 25/20 A3008 RMK A01 T02450199  RH  075%=      5-min Rain = 0
KCO2 141215Z 04012KT 25/20 A3009 RMK A01 T02450199  RH  076%=      5-min Rain = 0
KCO2 141216Z 03013KT 25/20 A3009 RMK A01 T02450199  RH  076%=      5-min Rain = 0
KCO2 141217Z 04012KT 25/20 A3009 RMK A01 T02450199  RH  076%=      5-min Rain = 0
KCO2 141218Z 04012KT 25/20 A3009 RMK A01 T02450199  RH  076%=      5-min Rain = 0
KCO2 141219Z 04011G16KT 25/20 A3009 RMK A01 T02450199  RH  076%=      5-min Rain = 0
KCO2 141220Z 04015KT 25/20 A3009 RMK A01 T02450199  RH  076%=      5-min Rain = 0
KCO2 141221Z 04014KT 25/20 A3009 RMK A01 T02450199  RH  076%=      5-min Rain = 0
KCO2 141222Z 03014KT 25/20 A3009 RMK A01 T02450199  RH  076%=      5-min Rain = 0
KCO2 141223Z 04015KT 25/20 A3009 RMK A01 T02450199  RH  076%=      5-min Rain = 0
KCO2 141224Z 04016G21KT 25/20 A3009 RMK A01 T02450200  RH  076%=      5-min Rain = 0
KCO2 141225Z 04011KT 25/20 A3009 RMK A01 T02450199  RH  076%=      5-min Rain = 0
KCO2 141226Z 04011G17KT 25/20 A3009 RMK A01 T02450199  RH  076%=      5-min Rain = 0
KCO2 141227Z 04014KT 25/20 A3009 RMK A01 T02450200  RH  076%=      5-min Rain = 0
KCO2 141228Z 04014KT 25/20 A3009 RMK A01 T02450200  RH  076%=      5-min Rain = 0
KCO2 141229Z 03014KT 25/20 A3009 RMK A01 T02450200  RH  076%=      5-min Rain = 0
KCO2 141230Z 04012KT 25/20 A3009 RMK A01 T02450200  RH  076%=      5-min Rain = 0
KCO2 141231Z 04014KT 25/20 A3009 RMK A01 T02450200  RH  076%=      5-min Rain = 0
KCO2 141232Z 04016KT 25/20 A3009 RMK A01 T02460201  RH  076%=      5-min Rain = 0
KCO2 141233Z 04015KT 25/20 A3009 RMK A01 T02450200  RH  076%=      5-min Rain = 0
KCO2 141234Z 04016KT 25/20 A301 RMK A01 T02450200  RH  076%=      5-min Rain = 0
KCO2 141235Z 04015KT 25/20 A301 RMK A01 T02450201  RH  076%=      5-min Rain = 0
KCO2 141236Z 04014KT 25/20 A301 RMK A01 T02450201  RH  076%=      5-min Rain = 0
KCO2 141237Z 04014KT 25/20 A301 RMK A01 T02450201  RH  076%=      5-min Rain = 0
KCO2 141238Z 04011KT 25/20 A3009 RMK A01 T02450201  RH  076%=      5-min Rain = 0
KCO2 141239Z 04014KT 25/20 A301 RMK A01 T02450201  RH  076%=      5-min Rain = 0
KCO2 141240Z 04016KT 25/20 A301 RMK A01 T02450201  RH  076%=      5-min Rain = 0
KCO2 141241Z 05014KT 25/20 A301 RMK A01 T02450201  RH  076%=      5-min Rain = 0
KCO2 141242Z 04015KT 25/20 A301 RMK A01 T02450201  RH  076%=      5-min Rain = 0
KCO2 141243Z 04013KT 25/20 A301 RMK A01 T02450201  RH  076%=      5-min Rain = 0
KCO2 141244Z 04016KT 25/20 A301 RMK A01 T02450201  RH  076%=      5-min Rain = 0
KCO2 141245Z 04015KT 25/20 A301 RMK A01 T02450201  RH  076%=      5-min Rain = 0
KCO2 141246Z 05013G18KT 25/20 A301 RMK A01 T02450201  RH  076%=      5-min Rain = 0
KCO2 141247Z 04012G17KT 25/20 A3009 RMK A01 T02450201  RH  076%=      5-min Rain = 0
KCO2 141248Z 04014KT 25/20 A3009 RMK A01 T02460201  RH  076%=      5-min Rain = 0
KCO2 141249Z 04011KT 25/20 A3009 RMK A01 T02460201  RH  076%=      5-min Rain = 0
KCO2 141250Z 05014KT 25/20 A301 RMK A01 T02460202  RH  076%=      5-min Rain = 0
KCO2 141251Z 05014KT 25/20 A301 RMK A01 T02460202  RH  076%=      5-min Rain = 0
KCO2 141252Z 04012KT 25/20 A301 RMK A01 T02460202  RH  076%=      5-min Rain = 0
KCO2 141253Z 04014KT 25/20 A301 RMK A01 T02460202  RH  076%=      5-min Rain = 0
KCO2 141254Z 04016KT 25/20 A301 RMK A01 T02470202  RH  076%=      5-min Rain = 0
KCO2 141255Z 05015KT 25/20 A301 RMK A01 T02470202  RH  076%=      5-min Rain = 0
KCO2 141256Z 05014KT 25/20 A301 RMK A01 T02470202  RH  076%=      5-min Rain = 0
KCO2 141257Z 04014KT 25/20 A301 RMK A01 T02470202  RH  076%=      5-min Rain = 0
KCO2 141258Z 05015KT 25/20 A301 RMK A01 T02470202  RH  076%=      5-min Rain = 0
KCO2 141259Z 05011KT 25/20 A301 RMK A01 T02470203  RH  076%=      5-min Rain = 0
KCO2 141300Z 04013KT 25/20 A301 RMK A01 T02480203  RH  076%=      5-min Rain = 0
KCO2 141301Z 04013KT 25/20 A301 RMK A01 T02480203  RH  076%=      5-min Rain = 0
KCO2 141302Z 04012KT 25/20 A301 RMK A01 T02480203  RH  076%=      5-min Rain = 0
KCO2 141303Z 04014KT 25/20 A301 RMK A01 T02480202  RH  076%=      5-min Rain = 0
KCO2 141304Z 04016KT 25/20 A301 RMK A01 T02490202  RH  075%=      5-min Rain = 0
KCO2 141305Z 04014KT 25/20 A301 RMK A01 T02490203  RH  075%=      5-min Rain = 0
KCO2 141306Z 03015KT 25/20 A301 RMK A01 T02490203  RH  076%=      5-min Rain = 0
KCO2 141307Z 04015KT 25/20 A301 RMK A01 T02490203  RH  075%=      5-min Rain = 0
KCO2 141308Z 04013KT 25/20 A301 RMK A01 T02490203  RH  075%=      5-min Rain = 0
KCO2 141309Z 04013KT 25/20 A301 RMK A01 T02490203  RH  075%=      5-min Rain = 0
KCO2 141310Z 03013KT 25/20 A301 RMK A01 T02490203  RH  075%=      5-min Rain = 0
KCO2 141311Z 03017KT 25/20 A301 RMK A01 T02500202  RH  075%=      5-min Rain = 0
KCO2 141312Z 04015G20KT 25/20 A301 RMK A01 T02490202  RH  075%=      5-min Rain = 0
KCO2 141313Z 03016KT 25/20 A301 RMK A01 T02490202  RH  075%=      5-min Rain = 0
KCO2 141314Z 03015KT 25/20 A301 RMK A01 T02490202  RH  075%=      5-min Rain = 0
KCO2 141315Z 04015KT 25/20 A301 RMK A01 T02490202  RH  075%=      5-min Rain = 0
KCO2 141316Z 04016KT 25/20 A301 RMK A01 T02500203  RH  075%=      5-min Rain = 0
KCO2 141317Z 04015KT 25/20 A301 RMK A01 T02500203  RH  075%=      5-min Rain = 0
KCO2 141318Z 04016KT 25/20 A301 RMK A01 T02500202  RH  075%=      5-min Rain = 0
KCO2 141319Z 04013KT 25/20 A301 RMK A01 T02500202  RH  075%=      5-min Rain = 0
KCO2 141320Z 04016KT 25/20 A3011 RMK A01 T02510202  RH  074%=      5-min Rain = 0
KCO2 141321Z 04015KT 25/20 A3011 RMK A01 T02510202  RH  074%=      5-min Rain = 0
KCO2 141322Z 03015KT 25/20 A3011 RMK A01 T02510202  RH  074%=      5-min Rain = 0
KCO2 141323Z 04017KT 25/20 A3011 RMK A01 T02510202  RH  074%=      5-min Rain = 0
KCO2 141324Z 04015KT 25/20 A3011 RMK A01 T02510202  RH  074%=      5-min Rain = 0
KCO2 141325Z 04017KT 25/20 A3011 RMK A01 T02510202  RH  074%=      5-min Rain = 0
KCO2 141326Z 04013KT 25/20 A3011 RMK A01 T02510202  RH  074%=      5-min Rain = 0
KCO2 141327Z 04015KT 25/20 A3011 RMK A01 T02520202  RH  074%=      5-min Rain = 0
KCO2 141328Z 04016KT 25/20 A3011 RMK A01 T02520202  RH  074%=      5-min Rain = 0
KCO2 141329Z 04014KT 25/20 A3011 RMK A01 T02520202  RH  074%=      5-min Rain = 0
KCO2 141330Z 04015KT 25/20 A3011 RMK A01 T02530202  RH  074%=      5-min Rain = 0
KCO2 141331Z 04015KT 25/20 A3011 RMK A01 T02530202  RH  073%=      5-min Rain = 0
KCO2 141332Z 04016KT 25/20 A3011 RMK A01 T02540203  RH  073%=      5-min Rain = 0
KCO2 141333Z 03014KT 25/20 A3012 RMK A01 T02540203  RH  073%=      5-min Rain = 0
KCO2 141334Z 03015KT 25/20 A3012 RMK A01 T02540203  RH  073%=      5-min Rain = 0
KCO2 141335Z 03016G22KT 25/20 A3012 RMK A01 T02540203  RH  073%=      5-min Rain = 0
KCO2 141336Z 03017KT 25/20 A3012 RMK A01 T02540203  RH  073%=      5-min Rain = 0
KCO2 141337Z 03017KT 25/20 A3012 RMK A01 T02540203  RH  073%=      5-min Rain = 0
KCO2 141338Z 04014KT 25/20 A3012 RMK A01 T02530203  RH  074%=      5-min Rain = 0
KCO2 141339Z 03015KT 25/20 A3012 RMK A01 T02540204  RH  074%=      5-min Rain = 0
KCO2 141340Z 03019KT 26/20 A3012 RMK A01 T02550204  RH  073%=      5-min Rain = 0
KCO2 141341Z 03014KT 26/20 A3012 RMK A01 T02550204  RH  073%=      5-min Rain = 0
KCO2 141342Z 04015KT 26/20 A3012 RMK A01 T02550204  RH  074%=      5-min Rain = 0
KCO2 141343Z 04019KT 26/20 A3012 RMK A01 T02560204  RH  073%=      5-min Rain = 0
KCO2 141344Z 03015KT 26/21 A3012 RMK A01 T02560205  RH  073%=      5-min Rain = 0
KCO2 141345Z 03018KT 26/20 A3012 RMK A01 T02560204  RH  073%=      5-min Rain = 0
KCO2 141346Z 03019KT 26/20 A3012 RMK A01 T02560204  RH  073%=      5-min Rain = 0
KCO2 141347Z 04020KT 26/20 A3012 RMK A01 T02550204  RH  073%=      5-min Rain = 0
KCO2 141348Z 04016KT 26/20 A3012 RMK A01 T02550204  RH  073%=      5-min Rain = 0
KCO2 141349Z 03015KT 26/20 A3012 RMK A01 T02550204  RH  073%=      5-min Rain = 0
KCO2 141350Z 03015KT 26/20 A3012 RMK A01 T02560204  RH  073%=      5-min Rain = 0
KCO2 141351Z 03019G24KT 26/21 A3012 RMK A01 T02570205  RH  073%=      5-min Rain = 0
KCO2 141352Z 03016KT 26/20 A3013 RMK A01 T02570204  RH  072%=      5-min Rain = 0
KCO2 141353Z 03018KT 26/21 A3013 RMK A01 T02570205  RH  073%=      5-min Rain = 0
KCO2 141354Z 04017KT 26/20 A3013 RMK A01 T02570204  RH  072%=      5-min Rain = 0
KCO2 141355Z 04017KT 26/20 A3013 RMK A01 T02570204  RH  073%=      5-min Rain = 0
KCO2 141356Z 04018KT 26/20 A3013 RMK A01 T02570204  RH  073%=      5-min Rain = 0
KCO2 141357Z 04017KT 26/21 A3013 RMK A01 T02580205  RH  073%=      5-min Rain = 0
KCO2 141358Z 04019KT 26/21 A3013 RMK A01 T02580205  RH  073%=      5-min Rain = 0
KCO2 141359Z 03018KT 26/21 A3013 RMK A01 T02560205  RH  073%=      5-min Rain = 0
KCO2 141400Z 03015KT 26/21 A3013 RMK A01 T02560205  RH  073%=      5-min Rain = 0
KCO2 141401Z 03017KT 26/21 A3013 RMK A01 T02560205  RH  073%=      5-min Rain = 0
KCO2 141402Z 04015KT 26/21 A3013 RMK A01 T02560205  RH  074%=      5-min Rain = 0
KCO2 141403Z 04017KT 26/21 A3013 RMK A01 T02560205  RH  073%=      5-min Rain = 0
KCO2 141404Z 04016KT 26/21 A3013 RMK A01 T02570205  RH  073%=      5-min Rain = 0
KCO2 141405Z 04017KT 26/21 A3013 RMK A01 T02580205  RH  073%=      5-min Rain = 0
KCO2 141406Z 03018KT 26/21 A3013 RMK A01 T02590205  RH  072%=      5-min Rain = 0
KCO2 141407Z 04018KT 26/21 A3013 RMK A01 T02590205  RH  072%=      5-min Rain = 0
KCO2 141408Z 04017KT 26/21 A3013 RMK A01 T02590206  RH  072%=      5-min Rain = 0
KCO2 141409Z 05017KT 26/21 A3013 RMK A01 T02590206  RH  072%=      5-min Rain = 0
KCO2 141410Z 05015KT 26/21 A3013 RMK A01 T02590206  RH  073%=      5-min Rain = 0
KCO2 141411Z 04015KT 26/21 A3013 RMK A01 T02590206  RH  072%=      5-min Rain = 0
KCO2 141412Z 04017KT 26/21 A3013 RMK A01 T02600205  RH  072%=      5-min Rain = 0
KCO2 141413Z 05018KT 26/21 A3013 RMK A01 T02600206  RH  072%=      5-min Rain = 0
KCO2 141414Z 04014G20KT 26/21 A3014 RMK A01 T02590206  RH  072%=      5-min Rain = 0
KCO2 141415Z 03011KT 26/21 A3014 RMK A01 T02590206  RH  073%=      5-min Rain = 0
KCO2 141416Z 03012KT 26/21 A3014 RMK A01 T02600206  RH  072%=      5-min Rain = 0
KCO2 141417Z 03015G20KT 26/21 A3014 RMK A01 T02610207  RH  072%=      5-min Rain = 0
KCO2 141418Z 03017KT 26/21 A3014 RMK A01 T02630207  RH  071%=      5-min Rain = 0
KCO2 141419Z 03016KT 26/21 A3014 RMK A01 T02630206  RH  071%=      5-min Rain = 0
KCO2 141420Z 04014KT 26/21 A3014 RMK A01 T02620207  RH  072%=      5-min Rain = 0
KCO2 141421Z 05017KT 26/21 A3014 RMK A01 T02610207  RH  072%=      5-min Rain = 0
KCO2 141422Z 05016G22KT 26/21 A3014 RMK A01 T02590206  RH  073%=      5-min Rain = 0
KCO2 141423Z 04016KT 26/21 A3014 RMK A01 T02580206  RH  073%=      5-min Rain = 0
KCO2 141424Z 04016KT 26/21 A3014 RMK A01 T02570206  RH  073%=      5-min Rain = 0
KCO2 141425Z 04015G20KT 26/21 A3014 RMK A01 T02570206  RH  073%=      5-min Rain = 0
KCO2 141426Z 04017KT 26/21 A3014 RMK A01 T02570206  RH  073%=      5-min Rain = 0
KCO2 141427Z 04017KT 26/21 A3014 RMK A01 T02570206  RH  073%=      5-min Rain = 0
KCO2 141428Z 04017KT 26/21 A3014 RMK A01 T02570207  RH  074%=      5-min Rain = 0
KCO2 141429Z 03016KT 26/21 A3014 RMK A01 T02580206  RH  073%=      5-min Rain = 0
KCO2 141430Z 03018G24KT 26/21 A3015 RMK A01 T02580206  RH  073%=      5-min Rain = 0
KCO2 141431Z 04019KT 26/21 A3014 RMK A01 T02580206  RH  073%=      5-min Rain = 0
KCO2 141432Z 04016KT 26/21 A3015 RMK A01 T02570206  RH  074%=      5-min Rain = 0
KCO2 141433Z 04017KT 26/21 A3014 RMK A01 T02570207  RH  074%=      5-min Rain = 0
KCO2 141434Z 04016KT 26/21 A3015 RMK A01 T02570206  RH  074%=      5-min Rain = 0
KCO2 141435Z 04017KT 26/21 A3015 RMK A01 T02560207  RH  074%=      5-min Rain = 0
KCO2 141436Z 04014KT 26/21 A3015 RMK A01 T02570207  RH  074%=      5-min Rain = 0
KCO2 141437Z 04014G21KT 26/21 A3015 RMK A01 T02570207  RH  074%=      5-min Rain = 0
KCO2 141438Z 04018KT 26/21 A3015 RMK A01 T02580207  RH  073%=      5-min Rain = 0
KCO2 141439Z 04018KT 26/21 A3015 RMK A01 T02570207  RH  074%=      5-min Rain = 0
KCO2 141440Z 05016KT 26/21 A3015 RMK A01 T02560206  RH  074%=      5-min Rain = 0
KCO2 141441Z 04017KT 26/21 A3015 RMK A01 T02550206  RH  074%=      5-min Rain = 0
KCO2 141442Z 05016KT 26/21 A3015 RMK A01 T02550207  RH  075%=      5-min Rain = 0
KCO2 141443Z 05017KT 26/21 A3015 RMK A01 T02550207  RH  075%=      5-min Rain = 0
KCO2 141444Z 04016KT 26/21 A3015 RMK A01 T02550207  RH  075%=      5-min Rain = 0
KCO2 141445Z 04017KT 26/21 A3015 RMK A01 T02550207  RH  074%=      5-min Rain = 0
KCO2 141446Z 04017KT 26/21 A3015 RMK A01 T02550206  RH  075%=      5-min Rain = 0
KCO2 141447Z 05015KT 26/21 A3015 RMK A01 T02550207  RH  075%=      5-min Rain = 0
KCO2 141448Z 05016KT 26/21 A3015 RMK A01 T02550207  RH  075%=      5-min Rain = 0
KCO2 141449Z 04016KT 26/21 A3015 RMK A01 T02550207  RH  075%=      5-min Rain = 0
KCO2 141450Z 04018KT 26/21 A3015 RMK A01 T02560207  RH  074%=      5-min Rain = 0
KCO2 141451Z 04017KT 26/21 A3015 RMK A01 T02560207  RH  074%=      5-min Rain = 0
KCO2 141452Z 04016KT 26/21 A3016 RMK A01 T02550207  RH  075%=      5-min Rain = 0
KCO2 141453Z 03015G20KT 26/21 A3015 RMK A01 T02550206  RH  074%=      5-min Rain = 0
KCO2 141454Z 05016KT 26/21 A3015 RMK A01 T02550206  RH  074%=      5-min Rain = 0
KCO2 141455Z 04016KT 26/21 A3015 RMK A01 T02560206  RH  074%=      5-min Rain = 0
KCO2 141456Z 03016G21KT 26/21 A3015 RMK A01 T02570206  RH  073%=      5-min Rain = 0
KCO2 141457Z 03019G24KT 26/21 A3016 RMK A01 T02580206  RH  073%=      5-min Rain = 0
KCO2 141458Z 04018KT 26/21 A3015 RMK A01 T02590206  RH  073%=      5-min Rain = 0
KCO2 141459Z 03017KT 26/21 A3016 RMK A01 T02590206  RH  072%=      5-min Rain = 0
KCO2 141500Z 04017G23KT 26/21 A3016 RMK A01 T02600206  RH  072%=      5-min Rain = 0
KCO2 141501Z 04019KT 26/21 A3016 RMK A01 T02600205  RH  072%=      5-min Rain = 0
KCO2 141502Z 03016KT 26/21 A3016 RMK A01 T02580206  RH  073%=      5-min Rain = 0
KCO2 141503Z 04017KT 26/21 A3016 RMK A01 T02580206  RH  073%=      5-min Rain = 0
KCO2 141504Z 04019KT 26/21 A3016 RMK A01 T02590206  RH  073%=      5-min Rain = 0
KCO2 141505Z 03018KT 26/21 A3016 RMK A01 T02580206  RH  073%=      5-min Rain = 0
KCO2 141506Z 03015KT 26/21 A3016 RMK A01 T02570206  RH  073%=      5-min Rain = 0
KCO2 141507Z 03020KT 26/21 A3016 RMK A01 T02560205  RH  074%=      5-min Rain = 0
KCO2 141508Z 03018G23KT 26/21 A3016 RMK A01 T02560205  RH  074%=      5-min Rain = 0
KCO2 141509Z 03018KT 26/21 A3016 RMK A01 T02550206  RH  074%=      5-min Rain = 0
KCO2 141510Z 03015KT 26/21 A3016 RMK A01 T02550205  RH  074%=      5-min Rain = 0
KCO2 141511Z 04019KT 26/21 A3016 RMK A01 T02560206  RH  074%=      5-min Rain = 0
KCO2 141512Z 04018KT 26/21 A3016 RMK A01 T02560205  RH  074%=      5-min Rain = 0
KCO2 141513Z 03019KT 26/21 A3016 RMK A01 T02550205  RH  074%=      5-min Rain = 0
KCO2 141514Z 04019KT 26/21 A3016 RMK A01 T02550205  RH  074%=      5-min Rain = 0
KCO2 141515Z 04017KT 25/21 A3016 RMK A01 T02540205  RH  074%=      5-min Rain = 0
KCO2 141516Z 03014KT 26/21 A3016 RMK A01 T02550205  RH  074%=      5-min Rain = 0
KCO2 141517Z 04017KT 26/21 A3016 RMK A01 T02560206  RH  074%=      5-min Rain = 0
KCO2 141518Z 04017KT 26/21 A3016 RMK A01 T02570205  RH  073%=      5-min Rain = 0
KCO2 141519Z 04017KT 26/21 A3016 RMK A01 T02570205  RH  073%=      5-min Rain = 0
KCO2 141520Z 03015KT 26/21 A3016 RMK A01 T02570206  RH  073%=      5-min Rain = 0
KCO2 141521Z 03015KT 26/21 A3016 RMK A01 T02580205  RH  073%=      5-min Rain = 0
KCO2 141522Z 04015G23KT 26/21 A3016 RMK A01 T02580206  RH  073%=      5-min Rain = 0
KCO2 141523Z 04016KT 26/21 A3016 RMK A01 T02590205  RH  072%=      5-min Rain = 0
KCO2 141524Z 04012KT 26/21 A3016 RMK A01 T02590206  RH  072%=      5-min Rain = 0
KCO2 141525Z 04016G21KT 26/21 A3016 RMK A01 T02600206  RH  072%=      5-min Rain = 0
KCO2 141526Z 04016KT 26/21 A3016 RMK A01 T02610205  RH  072%=      5-min Rain = 0
KCO2 141527Z 04015KT 26/21 A3016 RMK A01 T02600205  RH  072%=      5-min Rain = 0
KCO2 141528Z 04016KT 26/21 A3017 RMK A01 T02600206  RH  072%=      5-min Rain = 0
KCO2 141529Z 04016KT 26/21 A3017 RMK A01 T02590205  RH  072%=      5-min Rain = 0
KCO2 141530Z 03016KT 26/21 A3017 RMK A01 T02600205  RH  072%=      5-min Rain = 0
KCO2 141531Z 04015KT 26/21 A3017 RMK A01 T02590205  RH  072%=      5-min Rain = 0
KCO2 141532Z 04018KT 26/21 A3017 RMK A01 T02600205  RH  072%=      5-min Rain = 0
KCO2 141533Z 04016KT 26/20 A3017 RMK A01 T02600204  RH  071%=      5-min Rain = 0
KCO2 141534Z 04019KT 26/21 A3017 RMK A01 T02600205  RH  072%=      5-min Rain = 0
KCO2 141535Z 04018KT 26/21 A3017 RMK A01 T02590205  RH  072%=      5-min Rain = 0
KCO2 141536Z 04020KT 26/20 A3017 RMK A01 T02580204  RH  072%=      5-min Rain = 0
KCO2 141537Z 04014KT 26/21 A3017 RMK A01 T02570205  RH  073%=      5-min Rain = 0
KCO2 141538Z 05015KT 26/21 A3017 RMK A01 T02570205  RH  073%=      5-min Rain = 0
KCO2 141539Z 04013G18KT 26/21 A3017 RMK A01 T02580205  RH  073%=      5-min Rain = 0
KCO2 141540Z 04014KT 26/21 A3017 RMK A01 T02590205  RH  072%=      5-min Rain = 0
KCO2 141541Z 04015KT 26/20 A3017 RMK A01 T02600204  RH  071%=      5-min Rain = 0
KCO2 141542Z 04015KT 26/20 A3017 RMK A01 T02600204  RH  071%=      5-min Rain = 0
KCO2 141543Z 04015KT 26/21 A3017 RMK A01 T02620205  RH  071%=      5-min Rain = 0
KCO2 141544Z 03014KT 26/21 A3017 RMK A01 T02640205  RH  070%=      5-min Rain = 0
KCO2 141545Z 05013KT 27/21 A3017 RMK A01 T02660205  RH  069%=      5-min Rain = 0
KCO2 141546Z 05013KT 27/21 A3017 RMK A01 T02670205  RH  069%=      5-min Rain = 0
KCO2 141547Z 05013KT 27/21 A3017 RMK A01 T02700207  RH  068%=      5-min Rain = 0
KCO2 141548Z 05013G18KT 27/21 A3017 RMK A01 T02740207  RH  067%=      5-min Rain = 0
KCO2 141549Z 05017KT 28/21 A3017 RMK A01 T02770206  RH  065%=      5-min Rain = 0
KCO2 141550Z 04016KT 28/21 A3017 RMK A01 T02760205  RH  065%=      5-min Rain = 0
KCO2 141551Z 04013KT 27/21 A3017 RMK A01 T02730205  RH  066%=      5-min Rain = 0
KCO2 141552Z 03015KT 27/21 A3017 RMK A01 T02730205  RH  066%=      5-min Rain = 0
KCO2 141553Z 03015KT 27/20 A3017 RMK A01 T02720204  RH  066%=      5-min Rain = 0
KCO2 141554Z 04017KT 27/20 A3017 RMK A01 T02720204  RH  066%=      5-min Rain = 0
KCO2 141555Z 03015KT 27/20 A3017 RMK A01 T02730204  RH  066%=      5-min Rain = 0
KCO2 141556Z 03015KT 28/20 A3017 RMK A01 T02750204  RH  066%=      5-min Rain = 0
KCO2 141557Z 05012KT 28/21 A3017 RMK A01 T02790206  RH  065%=      5-min Rain = 0
KCO2 141558Z 05014KT 28/21 A3017 RMK A01 T02790205  RH  064%=      5-min Rain = 0
KCO2 141559Z 05016KT 28/20 A3017 RMK A01 T02770204  RH  064%=      5-min Rain = 0
KCO2 141600Z 04012G17KT 27/20 A3017 RMK A01 T02740203  RH  065%=      5-min Rain = 0
KCO2 141601Z 03014KT 27/20 A3017 RMK A01 T02730204  RH  066%=      5-min Rain = 0
KCO2 141602Z 03014G19KT 27/20 A3017 RMK A01 T02730203  RH  066%=      5-min Rain = 0
KCO2 141603Z 03016KT 27/20 A3017 RMK A01 T02710202  RH  066%=      5-min Rain = 0
KCO2 141604Z 03014KT 27/20 A3017 RMK A01 T02700203  RH  066%=      5-min Rain = 0
KCO2 141605Z 03012KT 27/20 A3017 RMK A01 T02710202  RH  066%=      5-min Rain = 0
KCO2 141606Z 03015KT 27/20 A3017 RMK A01 T02710203  RH  066%=      5-min Rain = 0
KCO2 141607Z 03015KT 27/20 A3017 RMK A01 T02710202  RH  066%=      5-min Rain = 0
KCO2 141608Z 03012KT 27/20 A3017 RMK A01 T02700202  RH  067%=      5-min Rain = 0
KCO2 141609Z 03012KT 27/20 A3017 RMK A01 T02710203  RH  066%=      5-min Rain = 0
KCO2 141610Z 04010KT 27/20 A3017 RMK A01 T02730204  RH  066%=      5-min Rain = 0
KCO2 141611Z 07011KT 28/21 A3017 RMK A01 T02780205  RH  064%=      5-min Rain = 0
KCO2 141612Z 07013KT 28/20 A3017 RMK A01 T02800204  RH  063%=      5-min Rain = 0
KCO2 141613Z 05011KT 28/20 A3017 RMK A01 T02800204  RH  063%=      5-min Rain = 0
KCO2 141614Z 05014KT 28/21 A3017 RMK A01 T02810205  RH  063%=      5-min Rain = 0
KCO2 141615Z 06015KT 28/20 A3017 RMK A01 T02830204  RH  062%=      5-min Rain = 0
KCO2 141616Z 06014KT 28/20 A3017 RMK A01 T02830204  RH  062%=      5-min Rain = 0
KCO2 141617Z 06012KT 28/20 A3017 RMK A01 T02830204  RH  062%=      5-min Rain = 0
KCO2 141618Z 06014G20KT 28/21 A3017 RMK A01 T02840205  RH  062%=      5-min Rain = 0
KCO2 141619Z 06017KT 29/20 A3017 RMK A01 T02860203  RH  061%=      5-min Rain = 0
KCO2 141620Z 04015KT 29/20 A3017 RMK A01 T02850204  RH  061%=      5-min Rain = 0
KCO2 141621Z 05014KT 28/20 A3017 RMK A01 T02840204  RH  062%=      5-min Rain = 0
KCO2 141622Z 06012G18KT 29/20 A3017 RMK A01 T02860204  RH  061%=      5-min Rain = 0
KCO2 141623Z 06016KT 29/20 A3017 RMK A01 T02870202  RH  060%=      5-min Rain = 0
KCO2 141624Z 06015KT 28/20 A3017 RMK A01 T02840203  RH  061%=      5-min Rain = 0
KCO2 141625Z 06012KT 28/20 A3017 RMK A01 T02840204  RH  062%=      5-min Rain = 0
KCO2 141626Z 06014KT 29/20 A3017 RMK A01 T02870203  RH  061%=      5-min Rain = 0
KCO2 141627Z 05014KT 29/20 A3017 RMK A01 T02860203  RH  061%=      5-min Rain = 0
KCO2 141628Z 05014KT 29/20 A3017 RMK A01 T02870204  RH  061%=      5-min Rain = 0
KCO2 141629Z 05014KT 29/20 A3017 RMK A01 T02880203  RH  060%=      5-min Rain = 0
KCO2 141630Z 05014KT 29/20 A3017 RMK A01 T02880203  RH  060%=      5-min Rain = 0
KCO2 141631Z 04015KT 29/20 A3017 RMK A01 T02880204  RH  060%=      5-min Rain = 0
KCO2 141632Z 04012KT 29/20 A3017 RMK A01 T02880203  RH  060%=      5-min Rain = 0
KCO2 141633Z 05015KT 29/20 A3017 RMK A01 T02890204  RH  060%=      5-min Rain = 0
KCO2 141634Z 05014KT 29/20 A3017 RMK A01 T02890203  RH  060%=      5-min Rain = 0
KCO2 141635Z 04009KT 29/20 A3017 RMK A01 T02880204  RH  060%=      5-min Rain = 0
KCO2 141636Z 06012KT 29/20 A3017 RMK A01 T02870204  RH  061%=      5-min Rain = 0
KCO2 141637Z 06012KT 29/20 A3017 RMK A01 T02890204  RH  060%=      5-min Rain = 0
KCO2 141638Z 06014KT 29/20 A3017 RMK A01 T02920204  RH  059%=      5-min Rain = 0
KCO2 141639Z 07013KT 29/20 A3017 RMK A01 T02920204  RH  059%=      5-min Rain = 0
KCO2 141640Z 07013KT 29/20 A3017 RMK A01 T02890202  RH  059%=      5-min Rain = 0
KCO2 141641Z 07012KT 29/20 A3017 RMK A01 T02870204  RH  061%=      5-min Rain = 0
KCO2 141642Z 05011KT 29/20 A3017 RMK A01 T02880203  RH  060%=      5-min Rain = 0
KCO2 141643Z 05013KT 29/21 A3017 RMK A01 T02910205  RH  060%=      5-min Rain = 0
KCO2 141644Z 04012KT 29/20 A3017 RMK A01 T02920204  RH  059%=      5-min Rain = 0
KCO2 141645Z 06010KT 29/20 A3017 RMK A01 T02900204  RH  060%=      5-min Rain = 0
KCO2 141646Z 07010KT 29/21 A3017 RMK A01 T02890205  RH  060%=      5-min Rain = 0
KCO2 141647Z 07010KT 29/20 A3017 RMK A01 T02900204  RH  060%=      5-min Rain = 0
KCO2 141648Z 07008KT 29/21 A3017 RMK A01 T02900205  RH  060%=      5-min Rain = 0
KCO2 141649Z 06010KT 29/21 A3017 RMK A01 T02890205  RH  060%=      5-min Rain = 0
KCO2 141650Z 05012KT 29/21 A3017 RMK A01 T02890205  RH  060%=      5-min Rain = 0
KCO2 141651Z 06011G17KT 29/21 A3017 RMK A01 T02900206  RH  060%=      5-min Rain = 0
KCO2 141652Z 07012G18KT 29/21 A3017 RMK A01 T02910205  RH  060%=      5-min Rain = 0
KCO2 141653Z 06009KT 29/21 A3017 RMK A01 T02890206  RH  061%=      5-min Rain = 0
KCO2 141654Z 06010KT 29/21 A3017 RMK A01 T02910207  RH  060%=      5-min Rain = 0
KCO2 141655Z 08008KT 29/21 A3016 RMK A01 T02930207  RH  060%=      5-min Rain = 0
KCO2 141656Z 07012KT 30/21 A3016 RMK A01 T02960207  RH  059%=      5-min Rain = 0
KCO2 141657Z 06013KT 30/21 A3016 RMK A01 T02980206  RH  058%=      5-min Rain = 0
KCO2 141658Z 06013KT 29/21 A3016 RMK A01 T02940205  RH  059%=      5-min Rain = 0
KCO2 141659Z 04010KT 29/21 A3016 RMK A01 T02910205  RH  060%=      5-min Rain = 0
KCO2 141700Z 04009KT 29/21 A3016 RMK A01 T02900206  RH  061%=      5-min Rain = 0
KCO2 141701Z 03005KT 29/21 A3016 RMK A01 T02910206  RH  060%=      5-min Rain = 0
KCO2 141702Z 06007KT 29/21 A3016 RMK A01 T02920208  RH  061%=      5-min Rain = 0
KCO2 141703Z 08013KT 30/21 A3016 RMK A01 T02950208  RH  060%=      5-min Rain = 0
KCO2 141704Z 07013KT 30/21 A3016 RMK A01 T02970207  RH  059%=      5-min Rain = 0
KCO2 141705Z 08013KT 30/21 A3016 RMK A01 T02980207  RH  058%=      5-min Rain = 0
KCO2 141706Z 07012KT 30/21 A3016 RMK A01 T02960207  RH  059%=      5-min Rain = 0
KCO2 141707Z 07013KT 30/21 A3016 RMK A01 T02950207  RH  059%=      5-min Rain = 0
KCO2 141708Z 09009KT 30/21 A3016 RMK A01 T02950207  RH  059%=      5-min Rain = 0
KCO2 141709Z 09008KT 30/21 A3016 RMK A01 T02950208  RH  060%=      5-min Rain = 0
KCO2 141710Z 08007KT 30/21 A3016 RMK A01 T02960207  RH  059%=      5-min Rain = 0
KCO2 141711Z 08008KT 30/21 A3016 RMK A01 T02950208  RH  060%=      5-min Rain = 0
KCO2 141712Z 08006KT 29/21 A3016 RMK A01 T02930208  RH  060%=      5-min Rain = 0
KCO2 141713Z 09008KT 29/21 A3016 RMK A01 T02940209  RH  060%=      5-min Rain = 0
KCO2 141714Z 08009KT 30/21 A3016 RMK A01 T02980209  RH  059%=      5-min Rain = 0
KCO2 141715Z 10011KT 30/21 A3016 RMK A01 T02980208  RH  059%=      5-min Rain = 0
KCO2 141716Z 09008KT 30/21 A3016 RMK A01 T02960209  RH  059%=      5-min Rain = 0
KCO2 141717Z 07005KT 30/21 A3016 RMK A01 T02960209  RH  060%=      5-min Rain = 0
KCO2 141718Z 07008KT 30/21 A3016 RMK A01 T02970208  RH  059%=      5-min Rain = 0
KCO2 141719Z 05011KT 30/21 A3016 RMK A01 T02980209  RH  059%=      5-min Rain = 0
KCO2 141720Z 03011KT 30/21 A3016 RMK A01 T03000208  RH  058%=      5-min Rain = 0
KCO2 141721Z 02006KT 30/21 A3016 RMK A01 T02990207  RH  058%=      5-min Rain = 0
KCO2 141722Z 02005KT 30/21 A3016 RMK A01 T02990208  RH  058%=      5-min Rain = 0
KCO2 141723Z 07004KT 30/21 A3016 RMK A01 T02990209  RH  059%=      5-min Rain = 0
KCO2 141724Z 07008KT 30/21 A3016 RMK A01 T03010211  RH  059%=      5-min Rain = 0
KCO2 141725Z 07007KT 30/21 A3016 RMK A01 T03020208  RH  057%=      5-min Rain = 0
KCO2 141726Z 10007KT 30/21 A3016 RMK A01 T03000210  RH  059%=      5-min Rain = 0
KCO2 141727Z 05006KT 30/21 A3015 RMK A01 T03010210  RH  058%=      5-min Rain = 0
KCO2 141728Z 06008G13KT 30/21 A3016 RMK A01 T03030209  RH  057%=      5-min Rain = 0
KCO2 141729Z 06012KT 30/21 A3016 RMK A01 T03030209  RH  057%=      5-min Rain = 0
KCO2 141730Z 06011KT 30/21 A3015 RMK A01 T03010209  RH  058%=      5-min Rain = 0
KCO2 141731Z 05009KT 30/21 A3015 RMK A01 T03010208  RH  058%=      5-min Rain = 0
KCO2 141732Z 03005KT 30/21 A3015 RMK A01 T02990207  RH  058%=      5-min Rain = 0
KCO2 141733Z 06005KT 30/21 A3015 RMK A01 T02980208  RH  059%=      5-min Rain = 0
KCO2 141734Z 07006KT 30/21 A3015 RMK A01 T02970208  RH  059%=      5-min Rain = 0
KCO2 141735Z 07005KT 30/21 A3015 RMK A01 T02970208  RH  059%=      5-min Rain = 0
KCO2 141736Z 06005KT 30/21 A3015 RMK A01 T02970209  RH  059%=      5-min Rain = 0
KCO2 141737Z 10008KT 30/21 A3015 RMK A01 T03000209  RH  058%=      5-min Rain = 0
KCO2 141738Z 08010KT 30/21 A3015 RMK A01 T03020208  RH  057%=      5-min Rain = 0
KCO2 141739Z 07009KT 30/21 A3015 RMK A01 T03020208  RH  057%=      5-min Rain = 0
KCO2 141740Z 07012KT 30/21 A3015 RMK A01 T03030209  RH  057%=      5-min Rain = 0
KCO2 141741Z 08013KT 31/21 A3015 RMK A01 T03070209  RH  056%=      5-min Rain = 0
KCO2 141742Z 07011KT 31/21 A3015 RMK A01 T03080209  RH  055%=      5-min Rain = 0
KCO2 141743Z 05012KT 31/21 A3015 RMK A01 T03090209  RH  055%=      5-min Rain = 0
KCO2 141744Z 05009KT 31/21 A3015 RMK A01 T03100209  RH  055%=      5-min Rain = 0
KCO2 141745Z 06004G9KT 31/21 A3014 RMK A01 T03090206  RH  054%=      5-min Rain = 0
KCO2 141746Z 09003KT 31/21 A3014 RMK A01 T03050206  RH  055%=      5-min Rain = 0
KCO2 141747Z 09011KT 31/21 A3014 RMK A01 T03050208  RH  056%=      5-min Rain = 0
KCO2 141748Z 07014KT 31/21 A3014 RMK A01 T03080207  RH  055%=      5-min Rain = 0
KCO2 141749Z 05010KT 31/21 A3014 RMK A01 T03070207  RH  055%=      5-min Rain = 0
KCO2 141750Z 08007KT 30/21 A3014 RMK A01 T03040206  RH  056%=      5-min Rain = 0
KCO2 141751Z 10007KT 30/21 A3014 RMK A01 T03030208  RH  057%=      5-min Rain = 0
KCO2 141752Z 07012G17KT 31/21 A3014 RMK A01 T03050209  RH  056%=      5-min Rain = 0
KCO2 141753Z 10011KT 31/21 A3014 RMK A01 T03100209  RH  055%=      5-min Rain = 0
KCO2 141754Z 10012KT 31/21 A3014 RMK A01 T03130209  RH  054%=      5-min Rain = 0
KCO2 141755Z 08011KT 32/21 A3014 RMK A01 T03150210  RH  054%=      5-min Rain = 0
KCO2 141756Z 06010KT 32/21 A3014 RMK A01 T03160209  RH  053%=      5-min Rain = 0
KCO2 141757Z 06007KT 31/21 A3013 RMK A01 T03140208  RH  053%=      5-min Rain = 0
KCO2 141758Z 07010KT 31/21 A3013 RMK A01 T03100209  RH  055%=      5-min Rain = 0
KCO2 141759Z 08009KT 31/21 A3013 RMK A01 T03090207  RH  055%=      5-min Rain = 0
KCO2 141800Z 07011KT 31/21 A3013 RMK A01 T03080208  RH  055%=      5-min Rain = 0
KCO2 141801Z 07010KT 31/21 A3013 RMK A01 T03110208  RH  054%=      5-min Rain = 0
KCO2 141802Z 07009KT 31/21 A3013 RMK A01 T03130208  RH  054%=      5-min Rain = 0
KCO2 141803Z 06006KT 31/21 A3013 RMK A01 T03120207  RH  054%=      5-min Rain = 0
KCO2 141804Z 07007KT 31/21 A3013 RMK A01 T03100208  RH  055%=      5-min Rain = 0
KCO2 141805Z 08011KT 31/21 A3013 RMK A01 T03110208  RH  054%=      5-min Rain = 0
KCO2 141806Z 07007KT 31/21 A3013 RMK A01 T03120209  RH  054%=      5-min Rain = 0
KCO2 141807Z 09010KT 31/21 A3013 RMK A01 T03130209  RH  054%=      5-min Rain = 0
KCO2 141808Z 09009KT 31/21 A3013 RMK A01 T03140209  RH  054%=      5-min Rain = 0
KCO2 141809Z 07010KT 31/21 A3013 RMK A01 T03140208  RH  053%=      5-min Rain = 0
KCO2 141810Z 08008KT 31/21 A3013 RMK A01 T03120208  RH  054%=      5-min Rain = 0
KCO2 141811Z 08009KT 31/21 A3013 RMK A01 T03100208  RH  055%=      5-min Rain = 0
KCO2 141812Z 10010KT 31/21 A3013 RMK A01 T03110208  RH  054%=      5-min Rain = 0
KCO2 141813Z 08010KT 31/21 A3013 RMK A01 T03130208  RH  054%=      5-min Rain = 0
KCO2 141814Z 10014KT 32/21 A3013 RMK A01 T03160210  RH  053%=      5-min Rain = 0
KCO2 141815Z 08012KT 32/21 A3013 RMK A01 T03180210  RH  053%=      5-min Rain = 0
KCO2 141816Z 08010KT 32/21 A3013 RMK A01 T03210211  RH  052%=      5-min Rain = 0
KCO2 141817Z 10010KT 32/21 A3013 RMK A01 T03230211  RH  052%=      5-min Rain = 0
KCO2 141818Z 07007KT 33/21 A3013 RMK A01 T03250211  RH  051%=      5-min Rain = 0
KCO2 141819Z 08007KT 33/21 A3013 RMK A01 T03250211  RH  051%=      5-min Rain = 0
KCO2 141820Z 09011KT 32/21 A3013 RMK A01 T03240209  RH  051%=      5-min Rain = 0
KCO2 141821Z 10006KT 32/21 A3012 RMK A01 T03210207  RH  051%=      5-min Rain = 0
KCO2 141822Z 09008KT 32/21 A3012 RMK A01 T03200210  RH  052%=      5-min Rain = 0
KCO2 141823Z 09009KT 32/21 A3012 RMK A01 T03230209  RH  051%=      5-min Rain = 0
KCO2 141824Z 08009KT 32/21 A3012 RMK A01 T03230209  RH  051%=      5-min Rain = 0
KCO2 141825Z 07010KT 32/21 A3012 RMK A01 T03220209  RH  051%=      5-min Rain = 0
KCO2 141826Z 06015KT 32/21 A3012 RMK A01 T03220206  RH  050%=      5-min Rain = 0
KCO2 141827Z 05012KT 32/21 A3012 RMK A01 T03210205  RH  050%=      5-min Rain = 0
KCO2 141828Z 05007KT 32/21 A3012 RMK A01 T03180205  RH  051%=      5-min Rain = 0
KCO2 141829Z 06008G14KT 32/21 A3012 RMK A01 T03180207  RH  052%=      5-min Rain = 0
KCO2 141830Z 09008KT 32/21 A3012 RMK A01 T03220208  RH  051%=      5-min Rain = 0
KCO2 141831Z 12006KT 32/21 A3012 RMK A01 T03220208  RH  051%=      5-min Rain = 0
KCO2 141832Z 10008KT 33/21 A3012 RMK A01 T03250209  RH  051%=      5-min Rain = 0
KCO2 141833Z 09009KT 33/21 A3012 RMK A01 T03270208  RH  050%=      5-min Rain = 0
KCO2 141834Z 09007G12KT 33/21 A3012 RMK A01 T03270209  RH  050%=      5-min Rain = 0
KCO2 141835Z 07009KT 33/21 A3012 RMK A01 T03290209  RH  049%=      5-min Rain = 0
KCO2 141836Z 07006KT 33/21 A3012 RMK A01 T03280210  RH  050%=      5-min Rain = 0
KCO2 141837Z 08009KT 33/21 A3012 RMK A01 T03290209  RH  049%=      5-min Rain = 0
KCO2 141838Z 07007KT 33/21 A3012 RMK A01 T03300208  RH  049%=      5-min Rain = 0
KCO2 141839Z 04010KT 33/21 A3012 RMK A01 T03300207  RH  048%=      5-min Rain = 0
KCO2 141840Z 05008KT 33/21 A3012 RMK A01 T03250205  RH  049%=      5-min Rain = 0
KCO2 141841Z 08011KT 32/21 A3012 RMK A01 T03240207  RH  050%=      5-min Rain = 0
KCO2 141842Z 09008KT 33/21 A3012 RMK A01 T03270207  RH  049%=      5-min Rain = 0
KCO2 141843Z 03005KT 33/21 A3012 RMK A01 T03280209  RH  050%=      5-min Rain = 0
KCO2 141844Z 02004KT 33/21 A3012 RMK A01 T03280208  RH  049%=      5-min Rain = 0
KCO2 141845Z 07008G13KT 33/21 A3012 RMK A01 T03270210  RH  050%=      5-min Rain = 0
KCO2 141846Z 08010KT 33/21 A3012 RMK A01 T03310209  RH  049%=      5-min Rain = 0
KCO2 141847Z 09009KT 33/21 A3012 RMK A01 T03340210  RH  048%=      5-min Rain = 0
KCO2 141848Z 09010KT 34/21 A3012 RMK A01 T03370208  RH  047%=      5-min Rain = 0
KCO2 141849Z 09010KT 33/21 A3011 RMK A01 T03340207  RH  048%=      5-min Rain = 0
KCO2 141850Z 08008KT 33/21 A3011 RMK A01 T03330207  RH  048%=      5-min Rain = 0
KCO2 141851Z 09005KT 33/21 A3011 RMK A01 T03310206  RH  048%=      5-min Rain = 0
KCO2 141852Z 06006KT 33/21 A3011 RMK A01 T03310207  RH  048%=      5-min Rain = 0
KCO2 141853Z 08006KT 33/21 A3011 RMK A01 T03310207  RH  048%=      5-min Rain = 0
KCO2 141854Z 08008KT 33/21 A3011 RMK A01 T03320207  RH  048%=      5-min Rain = 0
KCO2 141855Z 07010KT 34/21 A3011 RMK A01 T03360206  RH  047%=      5-min Rain = 0
KCO2 141856Z 07010KT 34/21 A3011 RMK A01 T03370207  RH  046%=      5-min Rain = 0
KCO2 141857Z 06007KT 34/21 A3011 RMK A01 T03350205  RH  046%=      5-min Rain = 0
KCO2 141858Z 08011G16KT 33/21 A3011 RMK A01 T03330205  RH  047%=      5-min Rain = 0
KCO2 141859Z 08013KT 33/21 A3011 RMK A01 T03330205  RH  047%=      5-min Rain = 0
KCO2 141900Z 08008KT 33/21 A3011 RMK A01 T03310206  RH  048%=      5-min Rain = 0
KCO2 141901Z 10007KT 33/21 A301 RMK A01 T03290207  RH  049%=      5-min Rain = 0
KCO2 141902Z 09005KT 33/21 A301 RMK A01 T03330208  RH  048%=      5-min Rain = 0
KCO2 141903Z 06008KT 34/21 A301 RMK A01 T03350207  RH  047%=      5-min Rain = 0
KCO2 141904Z 09008G13KT 34/21 A301 RMK A01 T03380210  RH  047%=      5-min Rain = 0
KCO2 141905Z 09008KT 34/21 A301 RMK A01 T03410207  RH  045%=      5-min Rain = 0
KCO2 141906Z 10010KT 34/21 A301 RMK A01 T03400207  RH  046%=      5-min Rain = 0
KCO2 141907Z 10010KT 34/21 A301 RMK A01 T03390205  RH  046%=      5-min Rain = 0
KCO2 141908Z 09011KT 34/20 A301 RMK A01 T03390202  RH  045%=      5-min Rain = 0
KCO2 141909Z 09011KT 34/20 A301 RMK A01 T03370204  RH  046%=      5-min Rain = 0
KCO2 141910Z 10011KT 34/20 A301 RMK A01 T03390203  RH  045%=      5-min Rain = 0
KCO2 141911Z 09010KT 34/20 A301 RMK A01 T03410202  RH  044%=      5-min Rain = 0
KCO2 141912Z 07011KT 34/20 A301 RMK A01 T03410202  RH  044%=      5-min Rain = 0
KCO2 141913Z 07009KT 34/20 A301 RMK A01 T03380195  RH  043%=      5-min Rain = 0
KCO2 141914Z 07009G15KT 33/20 A301 RMK A01 T03340196  RH  044%=      5-min Rain = 0
KCO2 141915Z 06011KT 34/20 A301 RMK A01 T03350197  RH  044%=      5-min Rain = 0
KCO2 141916Z 08010KT 34/20 A301 RMK A01 T03370199  RH  045%=      5-min Rain = 0
KCO2 141917Z 09006KT 34/20 A301 RMK A01 T03380201  RH  045%=      5-min Rain = 0
KCO2 141918Z 08007KT 34/20 A301 RMK A01 T03390199  RH  044%=      5-min Rain = 0
KCO2 141919Z 08006KT 34/20 A3009 RMK A01 T03390200  RH  044%=      5-min Rain = 0
KCO2 141920Z 09007KT 34/20 A3009 RMK A01 T03380203  RH  045%=      5-min Rain = 0
KCO2 141921Z 07006KT 34/20 A3009 RMK A01 T03390202  RH  045%=      5-min Rain = 0
KCO2 141922Z 07009KT 34/20 A3009 RMK A01 T03380201  RH  045%=      5-min Rain = 0
KCO2 141923Z 06010KT 34/20 A3009 RMK A01 T03380199  RH  044%=      5-min Rain = 0
KCO2 141924Z 06010G17KT 34/20 A3009 RMK A01 T03360196  RH  044%=      5-min Rain = 0
KCO2 141925Z 07011KT 34/19 A3009 RMK A01 T03370194  RH  043%=      5-min Rain = 0
KCO2 141926Z 05015KT 34/19 A3009 RMK A01 T03400192  RH  042%=      5-min Rain = 0
KCO2 141927Z 06011KT 34/19 A3009 RMK A01 T03400190  RH  041%=      5-min Rain = 0
KCO2 141928Z 07010KT 34/19 A3009 RMK A01 T03390192  RH  042%=      5-min Rain = 0
KCO2 141929Z 05009KT 34/19 A3009 RMK A01 T03390193  RH  042%=      5-min Rain = 0
KCO2 141930Z 03008KT 34/19 A3009 RMK A01 T03380193  RH  042%=      5-min Rain = 0
KCO2 141931Z 01008KT 34/20 A3009 RMK A01 T03390195  RH  043%=      5-min Rain = 0
KCO2 141932Z 01007KT 34/20 A3009 RMK A01 T03400195  RH  043%=      5-min Rain = 0
KCO2 141933Z 04011G19KT 34/19 A3009 RMK A01 T03400194  RH  042%=      5-min Rain = 0
KCO2 141934Z 05014G19KT 34/20 A3009 RMK A01 T03420195  RH  042%=      5-min Rain = 0
KCO2 141935Z 06006G13KT 34/19 A3009 RMK A01 T03420194  RH  042%=      5-min Rain = 0
KCO2 141936Z 03008KT 34/19 A3009 RMK A01 T03420194  RH  042%=      5-min Rain = 0
KCO2 141937Z 04011KT 35/20 A3009 RMK A01 T03460195  RH  041%=      5-min Rain = 0
KCO2 141938Z 07012KT 35/20 A3009 RMK A01 T03490195  RH  040%=      5-min Rain = 0
KCO2 141939Z 07010KT 35/19 A3008 RMK A01 T03460194  RH  041%=      5-min Rain = 0
KCO2 141940Z 06011G18KT 34/20 A3008 RMK A01 T03430195  RH  042%=      5-min Rain = 0
KCO2 141941Z 06010KT 35/19 A3008 RMK A01 T03450194  RH  041%=      5-min Rain = 0
KCO2 141942Z 06009KT 35/20 A3008 RMK A01 T03450196  RH  042%=      5-min Rain = 0
KCO2 141943Z 04007KT 35/20 A3008 RMK A01 T03450196  RH  042%=      5-min Rain = 0
KCO2 141944Z 04007KT 35/20 A3008 RMK A01 T03460196  RH  041%=      5-min Rain = 0
KCO2 141945Z 09009KT 35/20 A3008 RMK A01 T03470198  RH  042%=      5-min Rain = 0
KCO2 141946Z 08011G16KT 35/20 A3008 RMK A01 T03480196  RH  041%=      5-min Rain = 0
KCO2 141947Z 09011KT 35/19 A3008 RMK A01 T03470192  RH  040%=      5-min Rain = 0
KCO2 141948Z 08012G18KT 35/19 A3008 RMK A01 T03500190  RH  039%=      5-min Rain = 0
KCO2 141949Z 09012KT 35/19 A3008 RMK A01 T03510191  RH  039%=      5-min Rain = 0
KCO2 141950Z 09011KT 35/19 A3008 RMK A01 T03490192  RH  040%=      5-min Rain = 0
KCO2 141951Z 09009KT 35/19 A3008 RMK A01 T03490194  RH  040%=      5-min Rain = 0
KCO2 141952Z 07014KT 35/19 A3008 RMK A01 T03520194  RH  040%=      5-min Rain = 0
KCO2 141953Z 05012KT 35/19 A3008 RMK A01 T03520191  RH  039%=      5-min Rain = 0
KCO2 141954Z 05008KT 35/19 A3008 RMK A01 T03460191  RH  040%=      5-min Rain = 0
KCO2 141955Z 04010KT 35/19 A3008 RMK A01 T03470192  RH  040%=      5-min Rain = 0
KCO2 141956Z 07009KT 35/19 A3007 RMK A01 T03460189  RH  040%=      5-min Rain = 0
KCO2 141957Z 06008KT 35/19 A3007 RMK A01 T03450191  RH  040%=      5-min Rain = 0
KCO2 141958Z 07013KT 34/19 A3007 RMK A01 T03440191  RH  041%=      5-min Rain = 0
KCO2 141959Z 08012KT 35/19 A3007 RMK A01 T03450190  RH  040%=      5-min Rain = 0
KCO2 142000Z 08014KT 35/19 A3007 RMK A01 T03470191  RH  040%=      5-min Rain = 0
KCO2 142001Z 09011KT 35/19 A3007 RMK A01 T03460192  RH  040%=      5-min Rain = 0
KCO2 142002Z 09009KT 35/19 A3007 RMK A01 T03470192  RH  040%=      5-min Rain = 0
KCO2 142003Z 08008G13KT 35/19 A3007 RMK A01 T03500192  RH  040%=      5-min Rain = 0
KCO2 142004Z 08010KT 35/19 A3007 RMK A01 T03510191  RH  039%=      5-min Rain = 0
KCO2 142005Z 06006KT 35/19 A3007 RMK A01 T03500191  RH  039%=      5-min Rain = 0
KCO2 142006Z 05008KT 35/19 A3007 RMK A01 T03500193  RH  040%=      5-min Rain = 0
KCO2 142007Z 03011KT 35/19 A3006 RMK A01 T03510190  RH  039%=      5-min Rain = 0
KCO2 142008Z 06011KT 35/18 A3006 RMK A01 T03510184  RH  037%=      5-min Rain = 0
KCO2 142009Z 07014KT 35/19 A3006 RMK A01 T03510186  RH  038%=      5-min Rain = 0
KCO2 142010Z 08012KT 35/19 A3006 RMK A01 T03490187  RH  038%=      5-min Rain = 0
KCO2 142011Z 06014KT 35/18 A3006 RMK A01 T03490183  RH  037%=      5-min Rain = 0
KCO2 142012Z 06010KT 35/18 A3006 RMK A01 T03460180  RH  038%=      5-min Rain = 0
KCO2 142013Z 07010KT 34/19 A3006 RMK A01 T03440189  RH  040%=      5-min Rain = 0
KCO2 142014Z 07010KT 35/19 A3006 RMK A01 T03450190  RH  040%=      5-min Rain = 0
KCO2 142015Z 07009KT 35/19 A3006 RMK A01 T03460190  RH  040%=      5-min Rain = 0
KCO2 142016Z 06008KT 35/19 A3006 RMK A01 T03490191  RH  039%=      5-min Rain = 0
KCO2 142017Z 08006KT 35/19 A3006 RMK A01 T03480191  RH  040%=      5-min Rain = 0
KCO2 142018Z 07005KT 34/19 A3006 RMK A01 T03440191  RH  041%=      5-min Rain = 0
KCO2 142019Z 07005KT 35/19 A3006 RMK A01 T03450193  RH  041%=      5-min Rain = 0
KCO2 142020Z 07011KT 35/19 A3006 RMK A01 T03490192  RH  040%=      5-min Rain = 0
KCO2 142021Z 07008KT 35/19 A3006 RMK A01 T03510191  RH  039%=      5-min Rain = 0
KCO2 142022Z 08011KT 35/19 A3006 RMK A01 T03510193  RH  040%=      5-min Rain = 0
KCO2 142023Z 06013KT 35/19 A3006 RMK A01 T03510191  RH  039%=      5-min Rain = 0
KCO2 142024Z 04014KT 35/18 A3006 RMK A01 T03540180  RH  036%=      5-min Rain = 0
KCO2 142025Z 05012KT 35/18 A3006 RMK A01 T03520182  RH  037%=      5-min Rain = 0
KCO2 142026Z 05010KT 35/18 A3006 RMK A01 T03520184  RH  037%=      5-min Rain = 0
KCO2 142027Z 05010KT 35/19 A3006 RMK A01 T03510187  RH  038%=      5-min Rain = 0
KCO2 142028Z 05008KT 35/19 A3006 RMK A01 T03520185  RH  037%=      5-min Rain = 0
KCO2 142029Z 02010G16KT 35/19 A3005 RMK A01 T03530185  RH  037%=      5-min Rain = 0
KCO2 142030Z 03012KT 36/18 A3005 RMK A01 T03560182  RH  036%=      5-min Rain = 0
KCO2 142031Z 02009KT 36/18 A3005 RMK A01 T03570182  RH  036%=      5-min Rain = 0
KCO2 142032Z 02011KT 36/18 A3005 RMK A01 T03560182  RH  036%=      5-min Rain = 0
KCO2 142033Z 05010KT 36/18 A3005 RMK A01 T03560181  RH  036%=      5-min Rain = 0
KCO2 142034Z 07014KT 36/19 A3005 RMK A01 T03560185  RH  037%=      5-min Rain = 0
KCO2 142035Z 07017KT 36/19 A3005 RMK A01 T03550186  RH  037%=      5-min Rain = 0
KCO2 142036Z 08014KT 35/19 A3005 RMK A01 T03530187  RH  038%=      5-min Rain = 0
KCO2 142037Z 07013G18KT 35/19 A3005 RMK A01 T03490186  RH  038%=      5-min Rain = 0
KCO2 142038Z 06014KT 35/18 A3005 RMK A01 T03470184  RH  038%=      5-min Rain = 0
KCO2 142039Z 06010KT 35/18 A3005 RMK A01 T03470183  RH  038%=      5-min Rain = 0
KCO2 142040Z 05008KT 35/18 A3005 RMK A01 T03450184  RH  039%=      5-min Rain = 0
KCO2 142041Z 06005KT 35/18 A3005 RMK A01 T03460177  RH  037%=      5-min Rain = 0
KCO2 142042Z 05008KT 34/18 A3005 RMK A01 T03440182  RH  039%=      5-min Rain = 0
KCO2 142043Z 04009G14KT 35/19 A3005 RMK A01 T03450186  RH  039%=      5-min Rain = 0
KCO2 142044Z 07017KT 35/18 A3005 RMK A01 T03520179  RH  036%=      5-min Rain = 0
KCO2 142045Z 06016KT 36/18 A3005 RMK A01 T03550175  RH  034%=      5-min Rain = 0
KCO2 142046Z 06012KT 35/17 A3005 RMK A01 T03520174  RH  035%=      5-min Rain = 0
KCO2 142047Z 05011KT 35/18 A3005 RMK A01 T03520175  RH  035%=      5-min Rain = 0
KCO2 142048Z 05011KT 36/18 A3004 RMK A01 T03550179  RH  035%=      5-min Rain = 0
KCO2 142049Z 05011KT 36/18 A3004 RMK A01 T03570181  RH  036%=      5-min Rain = 0
KCO2 142050Z 06013KT 36/18 A3004 RMK A01 T03590183  RH  036%=      5-min Rain = 0
KCO2 142051Z 09009KT 36/19 A3004 RMK A01 T03580187  RH  037%=      5-min Rain = 0
KCO2 142052Z 09005KT 36/19 A3004 RMK A01 T03550188  RH  037%=      5-min Rain = 0
KCO2 142053Z 06007KT 35/19 A3004 RMK A01 T03540187  RH  038%=      5-min Rain = 0
KCO2 142054Z 03008KT 36/19 A3004 RMK A01 T03550185  RH  037%=      5-min Rain = 0
KCO2 142055Z 04007KT 36/19 A3004 RMK A01 T03580185  RH  036%=      5-min Rain = 0
KCO2 142056Z 03013KT 36/19 A3004 RMK A01 T03560185  RH  037%=      5-min Rain = 0
KCO2 142057Z 03013KT 36/18 A3004 RMK A01 T03560182  RH  036%=      5-min Rain = 0
KCO2 142058Z 05013KT 36/18 A3004 RMK A01 T03570181  RH  036%=      5-min Rain = 0
KCO2 142059Z 08014KT 36/18 A3004 RMK A01 T03550179  RH  035%=      5-min Rain = 0
KCO2 142100Z 08012G17KT 36/18 A3004 RMK A01 T03550181  RH  036%=      5-min Rain = 0
KCO2 142101Z 08011KT 35/18 A3004 RMK A01 T03540182  RH  036%=      5-min Rain = 0
KCO2 142102Z 09011KT 36/18 A3004 RMK A01 T03560181  RH  036%=      5-min Rain = 0
KCO2 142103Z 09011KT 35/18 A3004 RMK A01 T03540181  RH  036%=      5-min Rain = 0
KCO2 142104Z 08012KT 35/18 A3004 RMK A01 T03530179  RH  036%=      5-min Rain = 0
KCO2 142105Z 08007KT 36/18 A3004 RMK A01 T03550181  RH  036%=      5-min Rain = 0
KCO2 142106Z 05010G17KT 36/18 A3004 RMK A01 T03570183  RH  036%=      5-min Rain = 0
KCO2 142107Z 06010G18KT 36/19 A3004 RMK A01 T03560186  RH  037%=      5-min Rain = 0
KCO2 142108Z 09010KT 35/19 A3004 RMK A01 T03530188  RH  038%=      5-min Rain = 0
KCO2 142109Z 08011KT 36/19 A3004 RMK A01 T03550188  RH  037%=      5-min Rain = 0
KCO2 142110Z 05013KT 36/19 A3004 RMK A01 T03590186  RH  036%=      5-min Rain = 0
KCO2 142111Z 04012KT 36/19 A3004 RMK A01 T03580185  RH  036%=      5-min Rain = 0
KCO2 142112Z 04010KT 36/19 A3004 RMK A01 T03560186  RH  037%=      5-min Rain = 0
KCO2 142113Z 04007KT 36/18 A3004 RMK A01 T03550184  RH  037%=      5-min Rain = 0
KCO2 142114Z 08011KT 35/19 A3004 RMK A01 T03530185  RH  037%=      5-min Rain = 0
KCO2 142115Z 09012KT 35/18 A3004 RMK A01 T03540184  RH  037%=      5-min Rain = 0
KCO2 142116Z 09014KT 36/18 A3004 RMK A01 T03570183  RH  036%=      5-min Rain = 0
KCO2 142117Z 08012KT 36/18 A3004 RMK A01 T03560183  RH  036%=      5-min Rain = 0
KCO2 142118Z 08014G19KT 35/18 A3004 RMK A01 T03540183  RH  037%=      5-min Rain = 0
KCO2 142119Z 10012KT 35/18 A3004 RMK A01 T03540182  RH  036%=      5-min Rain = 0
KCO2 142120Z 10010KT 35/18 A3004 RMK A01 T03540183  RH  037%=      5-min Rain = 0
KCO2 142121Z 09008KT 35/18 A3004 RMK A01 T03540184  RH  037%=      5-min Rain = 0
KCO2 142122Z 11007KT 35/18 A3004 RMK A01 T03510184  RH  037%=      5-min Rain = 0
KCO2 142123Z 10007KT 35/19 A3003 RMK A01 T03510185  RH  038%=      5-min Rain = 0
KCO2 142124Z 11011G16KT 36/18 A3003 RMK A01 T03560183  RH  036%=      5-min Rain = 0
KCO2 142125Z 09013KT 36/18 A3003 RMK A01 T03570180  RH  035%=      5-min Rain = 0
KCO2 142126Z 09012KT 36/18 A3003 RMK A01 T03590183  RH  035%=      5-min Rain = 0
KCO2 142127Z 09008G13KT 36/18 A3004 RMK A01 T03590183  RH  036%=      5-min Rain = 0
KCO2 142128Z 09012KT 36/18 A3003 RMK A01 T03570181  RH  035%=      5-min Rain = 0
KCO2 142129Z 10013KT 36/18 A3004 RMK A01 T03550179  RH  036%=      5-min Rain = 0
KCO2 142130Z 10010KT 36/18 A3003 RMK A01 T03560179  RH  035%=      5-min Rain = 0
KCO2 142131Z 09007KT 35/18 A3003 RMK A01 T03540179  RH  036%=      5-min Rain = 0
KCO2 142132Z 10008KT 35/18 A3003 RMK A01 T03530181  RH  036%=      5-min Rain = 0
KCO2 142133Z 11007KT 35/18 A3003 RMK A01 T03540182  RH  036%=      5-min Rain = 0
KCO2 142134Z 10013KT 35/18 A3003 RMK A01 T03540182  RH  036%=      5-min Rain = 0
KCO2 142135Z 10010KT 35/19 A3003 RMK A01 T03540185  RH  037%=      5-min Rain = 0
KCO2 142136Z 10007KT 35/19 A3003 RMK A01 T03540186  RH  037%=      5-min Rain = 0
KCO2 142137Z 09007G13KT 35/19 A3003 RMK A01 T03540185  RH  037%=      5-min Rain = 0
KCO2 142138Z 09010KT 36/19 A3003 RMK A01 T03570186  RH  037%=      5-min Rain = 0
KCO2 142139Z 11011KT 36/18 A3003 RMK A01 T03600182  RH  035%=      5-min Rain = 0
KCO2 142140Z 09010KT 36/18 A3003 RMK A01 T03600183  RH  035%=      5-min Rain = 0
KCO2 142141Z 07011KT 36/18 A3003 RMK A01 T03590183  RH  035%=      5-min Rain = 0
KCO2 142142Z 07010KT 36/18 A3003 RMK A01 T03590178  RH  034%=      5-min Rain = 0
KCO2 142143Z 05009KT 36/18 A3003 RMK A01 T03550177  RH  035%=      5-min Rain = 0
KCO2 142144Z 06007KT 35/18 A3003 RMK A01 T03530179  RH  036%=      5-min Rain = 0
KCO2 142145Z 05007KT 35/18 A3003 RMK A01 T03540178  RH  035%=      5-min Rain = 0
KCO2 142146Z 04009KT 36/18 A3003 RMK A01 T03550177  RH  035%=      5-min Rain = 0
KCO2 142147Z 04009KT 36/18 A3003 RMK A01 T03580177  RH  034%=      5-min Rain = 0
KCO2 142148Z 06012KT 36/18 A3003 RMK A01 T03580180  RH  035%=      5-min Rain = 0
KCO2 142149Z 09013KT 36/18 A3003 RMK A01 T03580177  RH  034%=      5-min Rain = 0
KCO2 142150Z 09012KT 36/18 A3003 RMK A01 T03590175  RH  034%=      5-min Rain = 0
KCO2 142151Z 08009KT 36/17 A3003 RMK A01 T03560171  RH  033%=      5-min Rain = 0
KCO2 142152Z 08008KT 35/17 A3003 RMK A01 T03540174  RH  035%=      5-min Rain = 0
KCO2 142153Z 07009KT 36/18 A3003 RMK A01 T03550175  RH  034%=      5-min Rain = 0
KCO2 142154Z 08014KT 36/18 A3003 RMK A01 T03550175  RH  035%=      5-min Rain = 0
KCO2 142155Z 07012KT 35/18 A3003 RMK A01 T03530176  RH  035%=      5-min Rain = 0
KCO2 142156Z 06010KT 35/18 A3003 RMK A01 T03500176  RH  036%=      5-min Rain = 0
KCO2 142157Z 06011KT 35/17 A3003 RMK A01 T03490174  RH  035%=      5-min Rain = 0
KCO2 142158Z 06010KT 35/17 A3003 RMK A01 T03500171  RH  035%=      5-min Rain = 0
KCO2 142159Z 08011KT 35/17 A3003 RMK A01 T03530171  RH  034%=      5-min Rain = 0
KCO2 142200Z 09010KT 36/17 A3003 RMK A01 T03560168  RH  033%=      5-min Rain = 0
KCO2 142201Z 11009KT 35/17 A3003 RMK A01 T03540169  RH  033%=      5-min Rain = 0
KCO2 142202Z 10006KT 35/17 A3003 RMK A01 T03540169  RH  033%=      5-min Rain = 0
KCO2 142203Z 09008KT 35/17 A3003 RMK A01 T03540170  RH  034%=      5-min Rain = 0
KCO2 142204Z 08006KT 36/17 A3003 RMK A01 T03560173  RH  034%=      5-min Rain = 0
KCO2 142205Z 08007KT 36/18 A3003 RMK A01 T03560175  RH  034%=      5-min Rain = 0
KCO2 142206Z 10008KT 36/18 A3003 RMK A01 T03570178  RH  035%=      5-min Rain = 0
KCO2 142207Z 07006KT 36/18 A3003 RMK A01 T03580176  RH  034%=      5-min Rain = 0
KCO2 142208Z 05009KT 36/17 A3003 RMK A01 T03570173  RH  034%=      5-min Rain = 0
KCO2 142209Z 06009KT 36/17 A3003 RMK A01 T03570173  RH  034%=      5-min Rain = 0
KCO2 142210Z 07007KT 36/17 A3003 RMK A01 T03560172  RH  034%=      5-min Rain = 0
KCO2 142211Z 06007KT 35/17 A3003 RMK A01 T03530174  RH  035%=      5-min Rain = 0
KCO2 142212Z 06012KT 35/18 A3003 RMK A01 T03530181  RH  036%=      5-min Rain = 0
KCO2 142213Z 06012KT 35/18 A3003 RMK A01 T03530184  RH  037%=      5-min Rain = 0
KCO2 142214Z 06012KT 35/18 A3003 RMK A01 T03530183  RH  037%=      5-min Rain = 0
KCO2 142215Z 05010KT 35/18 A3003 RMK A01 T03530181  RH  036%=      5-min Rain = 0
KCO2 142216Z 06010KT 35/18 A3003 RMK A01 T03510180  RH  037%=      5-min Rain = 0
KCO2 142217Z 07011KT 35/18 A3003 RMK A01 T03520179  RH  036%=      5-min Rain = 0
KCO2 142218Z 05011KT 35/18 A3003 RMK A01 T03530175  RH  035%=      5-min Rain = 0
KCO2 142219Z 05009KT 35/17 A3003 RMK A01 T03520173  RH  035%=      5-min Rain = 0
KCO2 142220Z 05009KT 35/17 A3003 RMK A01 T03510174  RH  035%=      5-min Rain = 0
KCO2 142221Z 07010KT 35/17 A3003 RMK A01 T03530172  RH  034%=      5-min Rain = 0
KCO2 142222Z 06009KT 35/17 A3003 RMK A01 T03530173  RH  034%=      5-min Rain = 0
KCO2 142223Z 06010KT 35/17 A3003 RMK A01 T03540172  RH  034%=      5-min Rain = 0
KCO2 142224Z 05008KT 35/17 A3003 RMK A01 T03530170  RH  034%=      5-min Rain = 0
KCO2 142225Z 04007KT 35/17 A3003 RMK A01 T03530170  RH  034%=      5-min Rain = 0
KCO2 142226Z 05007KT 35/17 A3003 RMK A01 T03530172  RH  034%=      5-min Rain = 0
KCO2 142227Z 05005KT 35/17 A3003 RMK A01 T03530171  RH  034%=      5-min Rain = 0
KCO2 142228Z 06009KT 35/17 A3003 RMK A01 T03520171  RH  034%=      5-min Rain = 0
KCO2 142229Z 07009KT 35/17 A3003 RMK A01 T03520169  RH  034%=      5-min Rain = 0
KCO2 142230Z 05008KT 35/17 A3003 RMK A01 T03520172  RH  034%=      5-min Rain = 0
KCO2 142231Z 05009KT 35/17 A3003 RMK A01 T03520174  RH  035%=      5-min Rain = 0
KCO2 142232Z 06010KT 35/17 A3003 RMK A01 T03540173  RH  034%=      5-min Rain = 0
KCO2 142233Z 07011KT 36/17 A3003 RMK A01 T03560174  RH  034%=      5-min Rain = 0
KCO2 142234Z 07011KT 36/17 A3003 RMK A01 T03550174  RH  034%=      5-min Rain = 0
KCO2 142235Z 07008KT 35/18 A3003 RMK A01 T03520177  RH  036%=      5-min Rain = 0
KCO2 142236Z 07005KT 35/18 A3003 RMK A01 T03500177  RH  036%=      5-min Rain = 0
KCO2 142237Z 08005KT 35/18 A3003 RMK A01 T03490178  RH  036%=      5-min Rain = 0
KCO2 142238Z 07005KT 35/18 A3003 RMK A01 T03500179  RH  036%=      5-min Rain = 0
KCO2 142239Z 08005KT 35/18 A3003 RMK A01 T03500180  RH  037%=      5-min Rain = 0
KCO2 142240Z 06009KT 35/18 A3003 RMK A01 T03510181  RH  037%=      5-min Rain = 0
KCO2 142241Z 06012KT 35/18 A3003 RMK A01 T03520180  RH  036%=      5-min Rain = 0
KCO2 142242Z 06009KT 35/18 A3003 RMK A01 T03530181  RH  036%=      5-min Rain = 0
KCO2 142243Z 06010KT 36/18 A3003 RMK A01 T03550179  RH  035%=      5-min Rain = 0
KCO2 142244Z 08009KT 35/18 A3003 RMK A01 T03530180  RH  036%=      5-min Rain = 0
KCO2 142245Z 10009KT 35/18 A3003 RMK A01 T03530182  RH  036%=      5-min Rain = 0
KCO2 142246Z 11009KT 36/18 A3003 RMK A01 T03550181  RH  036%=      5-min Rain = 0
KCO2 142247Z 08009KT 36/18 A3003 RMK A01 T03550180  RH  036%=      5-min Rain = 0
KCO2 142248Z 05011KT 36/18 A3003 RMK A01 T03550180  RH  036%=      5-min Rain = 0
KCO2 142249Z 05010KT 36/18 A3003 RMK A01 T03550178  RH  035%=      5-min Rain = 0
KCO2 142250Z 05008KT 35/18 A3003 RMK A01 T03520178  RH  036%=      5-min Rain = 0
KCO2 142251Z 05008KT 35/18 A3003 RMK A01 T03520178  RH  036%=      5-min Rain = 0
KCO2 142252Z 04010KT 35/18 A3003 RMK A01 T03530175  RH  035%=      5-min Rain = 0
KCO2 142253Z 06010KT 35/17 A3003 RMK A01 T03530171  RH  034%=      5-min Rain = 0
KCO2 142254Z 06008KT 35/18 A3003 RMK A01 T03520176  RH  035%=      5-min Rain = 0
KCO2 142255Z 06008KT 35/18 A3003 RMK A01 T03520177  RH  036%=      5-min Rain = 0
KCO2 142256Z 09008KT 35/18 A3003 RMK A01 T03510179  RH  036%=      5-min Rain = 0
KCO2 142257Z 10009KT 35/18 A3003 RMK A01 T03520182  RH  037%=      5-min Rain = 0
KCO2 142258Z 09008KT 35/18 A3003 RMK A01 T03520181  RH  037%=      5-min Rain = 0
KCO2 142259Z 08009KT 35/18 A3003 RMK A01 T03520181  RH  037%=      5-min Rain = 0
KCO2 142300Z 09011KT 35/18 A3002 RMK A01 T03530182  RH  037%=      5-min Rain = 0
KCO2 142301Z 08009KT 35/18 A3003 RMK A01 T03530179  RH  036%=      5-min Rain = 0
KCO2 142302Z 08007KT 35/18 A3003 RMK A01 T03520180  RH  036%=      5-min Rain = 0
KCO2 142303Z 06006KT 35/18 A3003 RMK A01 T03520181  RH  036%=      5-min Rain = 0
KCO2 142304Z 04008KT 35/18 A3003 RMK A01 T03530181  RH  036%=      5-min Rain = 0
KCO2 142305Z 06007KT 35/18 A3003 RMK A01 T03540181  RH  036%=      5-min Rain = 0
KCO2 142306Z 04006KT 35/18 A3002 RMK A01 T03510180  RH  036%=      5-min Rain = 0
KCO2 142307Z 06009KT 35/18 A3002 RMK A01 T03520179  RH  036%=      5-min Rain = 0
KCO2 142308Z 06011KT 35/18 A3003 RMK A01 T03530180  RH  036%=      5-min Rain = 0
KCO2 142309Z 07011KT 35/18 A3003 RMK A01 T03530180  RH  036%=      5-min Rain = 0
KCO2 142310Z 07008KT 35/18 A3003 RMK A01 T03520180  RH  036%=      5-min Rain = 0
KCO2 142311Z 06007KT 35/18 A3002 RMK A01 T03500180  RH  037%=      5-min Rain = 0
KCO2 142312Z 05008KT 35/18 A3002 RMK A01 T03500179  RH  037%=      5-min Rain = 0
KCO2 142313Z 05010KT 35/18 A3002 RMK A01 T03510181  RH  037%=      5-min Rain = 0
KCO2 142314Z 07007KT 35/18 A3002 RMK A01 T03500181  RH  037%=      5-min Rain = 0
KCO2 142315Z 05008KT 35/18 A3002 RMK A01 T03490182  RH  037%=      5-min Rain = 0
KCO2 142316Z 06007KT 35/18 A3002 RMK A01 T03490180  RH  037%=      5-min Rain = 0
KCO2 142317Z 07008KT 35/18 A3002 RMK A01 T03490181  RH  037%=      5-min Rain = 0
KCO2 142318Z 07010KT 35/19 A3002 RMK A01 T03490185  RH  038%=      5-min Rain = 0
KCO2 142319Z 07010KT 35/18 A3002 RMK A01 T03510183  RH  037%=      5-min Rain = 0
KCO2 142320Z 07007KT 35/18 A3002 RMK A01 T03490183  RH  038%=      5-min Rain = 0
KCO2 142321Z 08006KT 35/18 A3002 RMK A01 T03480184  RH  038%=      5-min Rain = 0
KCO2 142322Z 10007KT 35/18 A3002 RMK A01 T03480184  RH  038%=      5-min Rain = 0
KCO2 142323Z 11005KT 35/18 A3002 RMK A01 T03480184  RH  038%=      5-min Rain = 0
KCO2 142324Z 09005KT 35/19 A3002 RMK A01 T03490185  RH  038%=      5-min Rain = 0
KCO2 142325Z 08010KT 35/18 A3002 RMK A01 T03500183  RH  037%=      5-min Rain = 0
KCO2 142326Z 05009KT 35/18 A3002 RMK A01 T03510180  RH  036%=      5-min Rain = 0
KCO2 142327Z 04010KT 35/18 A3002 RMK A01 T03510181  RH  037%=      5-min Rain = 0
KCO2 142328Z 05009KT 35/18 A3002 RMK A01 T03510181  RH  037%=      5-min Rain = 0
KCO2 142329Z 06007KT 35/18 A3002 RMK A01 T03500181  RH  037%=      5-min Rain = 0
KCO2 142330Z 05008KT 35/18 A3002 RMK A01 T03510181  RH  037%=      5-min Rain = 0
KCO2 142331Z 05007KT 35/18 A3002 RMK A01 T03510182  RH  037%=      5-min Rain = 0
KCO2 142332Z 05006KT 35/18 A3002 RMK A01 T03490181  RH  037%=      5-min Rain = 0
KCO2 142333Z 05005KT 35/18 A3002 RMK A01 T03480181  RH  037%=      5-min Rain = 0
KCO2 142334Z 06006KT 35/18 A3002 RMK A01 T03480180  RH  037%=      5-min Rain = 0
KCO2 142335Z 06004KT 35/18 A3002 RMK A01 T03480179  RH  037%=      5-min Rain = 0
KCO2 142336Z 06007KT 35/18 A3002 RMK A01 T03470180  RH  037%=      5-min Rain = 0
KCO2 142337Z 06010KT 35/18 A3002 RMK A01 T03490179  RH  037%=      5-min Rain = 0
KCO2 142338Z 08010KT 35/18 A3002 RMK A01 T03500180  RH  037%=      5-min Rain = 0
KCO2 142339Z 07010KT 35/18 A3002 RMK A01 T03510181  RH  037%=      5-min Rain = 0
KCO2 142340Z 08011KT 35/18 A3002 RMK A01 T03520182  RH  037%=      5-min Rain = 0
KCO2 142341Z 07010KT 35/18 A3002 RMK A01 T03520181  RH  037%=      5-min Rain = 0
KCO2 142342Z 07009KT 35/18 A3002 RMK A01 T03510181  RH  037%=      5-min Rain = 0
KCO2 142343Z 07009KT 35/18 A3002 RMK A01 T03490182  RH  037%=      5-min Rain = 0
KCO2 142344Z 07007KT 35/18 A3002 RMK A01 T03490182  RH  037%=      5-min Rain = 0
KCO2 142345Z 08005KT 35/18 A3002 RMK A01 T03480181  RH  037%=      5-min Rain = 0
KCO2 142346Z 07006KT 35/18 A3002 RMK A01 T03470181  RH  038%=      5-min Rain = 0
KCO2 142347Z 06005KT 35/18 A3001 RMK A01 T03470180  RH  037%=      5-min Rain = 0
KCO2 142348Z 04003KT 35/18 A3001 RMK A01 T03470179  RH  037%=      5-min Rain = 0
KCO2 142349Z 05002KT 35/18 A3001 RMK A01 T03470178  RH  037%=      5-min Rain = 0
KCO2 142350Z 09004KT 35/18 A3001 RMK A01 T03470180  RH  037%=      5-min Rain = 0
KCO2 142351Z 10004KT 35/18 A3002 RMK A01 T03480182  RH  038%=      5-min Rain = 0
KCO2 142352Z 10006KT 35/18 A3002 RMK A01 T03480183  RH  038%=      5-min Rain = 0
KCO2 142353Z 08006KT 35/18 A3002 RMK A01 T03480184  RH  038%=      5-min Rain = 0
KCO2 142354Z 07009KT 35/19 A3002 RMK A01 T03490186  RH  038%=      5-min Rain = 0
KCO2 142355Z 07012KT 35/19 A3002 RMK A01 T03500185  RH  038%=      5-min Rain = 0
KCO2 142356Z 09009KT 35/18 A3002 RMK A01 T03500184  RH  038%=      5-min Rain = 0
KCO2 142357Z 07009KT 35/19 A3002 RMK A01 T03480185  RH  038%=      5-min Rain = 0
KCO2 142358Z 06009KT 35/18 A3002 RMK A01 T03480184  RH  038%=      5-min Rain = 0
KCO2 142359Z 06009KT 35/18 A3002 RMK A01 T03470184  RH  038%=      5-min Rain = 0
KCO2 150000Z 07008KT 35/18 A3001 RMK A01 T03460184  RH  038%=      5-min Rain = 0
KCO2 150001Z 07007KT 35/18 A3001 RMK A01 T03450184  RH  039%=      5-min Rain = 0
KCO2 150002Z 06006KT 35/18 A3001 RMK A01 T03450184  RH  039%=      5-min Rain = 0
KCO2 150003Z 05006KT 35/18 A3001 RMK A01 T03450184  RH  039%=      5-min Rain = 0
KCO2 150004Z 07005KT 34/18 A3001 RMK A01 T03440184  RH  039%=      5-min Rain = 0
KCO2 150005Z 06005KT 34/19 A3001 RMK A01 T03430185  RH  039%=      5-min Rain = 0
KCO2 150006Z 06007KT 34/18 A3001 RMK A01 T03440184  RH  039%=      5-min Rain = 0
KCO2 150007Z 08006KT 34/19 A3001 RMK A01 T03440185  RH  039%=      5-min Rain = 0
KCO2 150008Z 08006KT 34/19 A3001 RMK A01 T03440185  RH  039%=      5-min Rain = 0
KCO2 150009Z 07008KT 35/18 A3001 RMK A01 T03460184  RH  039%=      5-min Rain = 0
KCO2 150010Z 07008KT 35/18 A3001 RMK A01 T03470182  RH  038%=      5-min Rain = 0
KCO2 150011Z 07007KT 35/18 A3001 RMK A01 T03470181  RH  038%=      5-min Rain = 0
KCO2 150012Z 08009KT 35/18 A3001 RMK A01 T03460181  RH  038%=      5-min Rain = 0
KCO2 150013Z 08010KT 35/18 A3001 RMK A01 T03460179  RH  037%=      5-min Rain = 0
KCO2 150014Z 08011KT 35/18 A3001 RMK A01 T03450178  RH  037%=      5-min Rain = 0
KCO2 150015Z 08010KT 34/18 A3002 RMK A01 T03440178  RH  037%=      5-min Rain = 0
KCO2 150016Z 08008KT 34/18 A3001 RMK A01 T03430177  RH  038%=      5-min Rain = 0
KCO2 150017Z 07007KT 34/18 A3001 RMK A01 T03420178  RH  038%=      5-min Rain = 0
KCO2 150018Z 05008KT 34/18 A3001 RMK A01 T03420177  RH  037%=      5-min Rain = 0
KCO2 150019Z 06009KT 34/18 A3001 RMK A01 T03430176  RH  037%=      5-min Rain = 0
KCO2 150020Z 06009KT 34/18 A3001 RMK A01 T03420176  RH  037%=      5-min Rain = 0
KCO2 150021Z 05009KT 34/18 A3002 RMK A01 T03420177  RH  038%=      5-min Rain = 0
KCO2 150022Z 05006KT 34/18 A3002 RMK A01 T03420178  RH  038%=      5-min Rain = 0
KCO2 150023Z 06006KT 34/18 A3002 RMK A01 T03410178  RH  038%=      5-min Rain = 0
KCO2 150024Z 08007KT 34/18 A3001 RMK A01 T03410178  RH  038%=      5-min Rain = 0
KCO2 150025Z 08008KT 34/18 A3001 RMK A01 T03420176  RH  037%=      5-min Rain = 0
KCO2 150026Z 06009KT 34/18 A3001 RMK A01 T03420175  RH  037%=      5-min Rain = 0
KCO2 150027Z 06009KT 34/17 A3002 RMK A01 T03430174  RH  037%=      5-min Rain = 0
KCO2 150028Z 06008KT 34/17 A3002 RMK A01 T03420174  RH  037%=      5-min Rain = 0
KCO2 150029Z 07010KT 34/17 A3002 RMK A01 T03410174  RH  037%=      5-min Rain = 0
KCO2 150030Z 08007KT 34/17 A3002 RMK A01 T03410174  RH  037%=      5-min Rain = 0
KCO2 150031Z 07008KT 34/18 A3002 RMK A01 T03410175  RH  037%=      5-min Rain = 0
KCO2 150032Z 07009KT 34/18 A3002 RMK A01 T03410176  RH  037%=      5-min Rain = 0
KCO2 150033Z 07006KT 34/18 A3002 RMK A01 T03410176  RH  038%=      5-min Rain = 0
KCO2 150034Z 08008KT 34/18 A3002 RMK A01 T03410175  RH  037%=      5-min Rain = 0
KCO2 150035Z 07007KT 34/17 A3002 RMK A01 T03400173  RH  037%=      5-min Rain = 0
KCO2 150036Z 07008KT 34/17 A3002 RMK A01 T03400174  RH  037%=      5-min Rain = 0
KCO2 150037Z 07007KT 34/17 A3001 RMK A01 T03400173  RH  037%=      5-min Rain = 0
KCO2 150038Z 06009KT 34/17 A3002 RMK A01 T03400174  RH  037%=      5-min Rain = 0
KCO2 150039Z 07009KT 34/18 A3002 RMK A01 T03400175  RH  038%=      5-min Rain = 0
KCO2 150040Z 06008KT 34/18 A3002 RMK A01 T03390175  RH  038%=      5-min Rain = 0
KCO2 150041Z 06010KT 34/18 A3002 RMK A01 T03390176  RH  038%=      5-min Rain = 0
KCO2 150042Z 06008KT 34/18 A3002 RMK A01 T03380177  RH  038%=      5-min Rain = 0
KCO2 150043Z 05008KT 34/18 A3002 RMK A01 T03380178  RH  039%=      5-min Rain = 0
KCO2 150044Z 06007KT 34/18 A3002 RMK A01 T03380178  RH  039%=      5-min Rain = 0
KCO2 150045Z 07008KT 34/18 A3002 RMK A01 T03380178  RH  039%=      5-min Rain = 0
KCO2 150046Z 07007KT 34/18 A3002 RMK A01 T03370178  RH  039%=      5-min Rain = 0
KCO2 150047Z 07007KT 34/18 A3002 RMK A01 T03370179  RH  039%=      5-min Rain = 0
KCO2 150048Z 07008KT 34/18 A3002 RMK A01 T03370179  RH  039%=      5-min Rain = 0
KCO2 150049Z 06007KT 34/18 A3002 RMK A01 T03370180  RH  039%=      5-min Rain = 0
KCO2 150050Z 06006KT 34/18 A3002 RMK A01 T03370179  RH  039%=      5-min Rain = 0
KCO2 150051Z 05007KT 34/18 A3002 RMK A01 T03360178  RH  039%=      5-min Rain = 0
KCO2 150052Z 05007KT 34/18 A3002 RMK A01 T03360175  RH  038%=      5-min Rain = 0
KCO2 150053Z 05007KT 34/18 A3002 RMK A01 T03360175  RH  038%=      5-min Rain = 0
KCO2 150054Z 06007KT 34/17 A3002 RMK A01 T03350174  RH  038%=      5-min Rain = 0
KCO2 150055Z 07006KT 34/18 A3002 RMK A01 T03350175  RH  038%=      5-min Rain = 0
KCO2 150056Z 06005KT 34/18 A3002 RMK A01 T03350176  RH  039%=      5-min Rain = 0
KCO2 150057Z 07005KT 34/18 A3002 RMK A01 T03350177  RH  039%=      5-min Rain = 0
KCO2 150058Z 06005KT 33/18 A3003 RMK A01 T03340176  RH  039%=      5-min Rain = 0
KCO2 150059Z 07007KT 33/18 A3003 RMK A01 T03340177  RH  039%=      5-min Rain = 0
KCO2 150100Z 07009KT 33/18 A3003 RMK A01 T03340177  RH  039%=      5-min Rain = 0
KCO2 150101Z 06007KT 33/18 A3003 RMK A01 T03330177  RH  040%=      5-min Rain = 0
KCO2 150102Z 07007KT 33/18 A3003 RMK A01 T03330177  RH  040%=      5-min Rain = 0
KCO2 150103Z 07007KT 33/18 A3003 RMK A01 T03330178  RH  040%=      5-min Rain = 0
KCO2 150104Z 07006KT 33/18 A3003 RMK A01 T03320178  RH  040%=      5-min Rain = 0
KCO2 150105Z 06006KT 33/18 A3003 RMK A01 T03320178  RH  040%=      5-min Rain = 0
KCO2 150106Z 06006KT 33/18 A3003 RMK A01 T03310178  RH  040%=      5-min Rain = 0
KCO2 150107Z 06007KT 33/18 A3003 RMK A01 T03310178  RH  040%=      5-min Rain = 0
KCO2 150108Z 07007KT 33/18 A3003 RMK A01 T03310178  RH  040%=      5-min Rain = 0
KCO2 150109Z 07008KT 33/18 A3003 RMK A01 T03300179  RH  041%=      5-min Rain = 0
KCO2 150110Z 07007KT 33/18 A3003 RMK A01 T03300179  RH  041%=      5-min Rain = 0
KCO2 150111Z 06007KT 33/18 A3003 RMK A01 T03300179  RH  041%=      5-min Rain = 0
KCO2 150112Z 06005KT 33/18 A3003 RMK A01 T03290179  RH  041%=      5-min Rain = 0
KCO2 150113Z 06006KT 33/18 A3003 RMK A01 T03280180  RH  041%=      5-min Rain = 0
KCO2 150114Z 06006KT 33/18 A3003 RMK A01 T03280180  RH  042%=      5-min Rain = 0
KCO2 150115Z 07007KT 33/18 A3003 RMK A01 T03270181  RH  042%=      5-min Rain = 0
KCO2 150116Z 06006KT 33/18 A3003 RMK A01 T03270181  RH  042%=      5-min Rain = 0
KCO2 150117Z 06007KT 33/18 A3003 RMK A01 T03270181  RH  042%=      5-min Rain = 0
KCO2 150118Z 07007KT 33/18 A3003 RMK A01 T03260182  RH  042%=      5-min Rain = 0
KCO2 150119Z 07007KT 33/18 A3003 RMK A01 T03260182  RH  043%=      5-min Rain = 0
KCO2 150120Z 06007KT 33/18 A3003 RMK A01 T03260183  RH  043%=      5-min Rain = 0
KCO2 150121Z 06007KT 33/18 A3003 RMK A01 T03250183  RH  043%=      5-min Rain = 0
KCO2 150122Z 06006KT 33/18 A3003 RMK A01 T03250183  RH  043%=      5-min Rain = 0
KCO2 150123Z 06006KT 32/18 A3003 RMK A01 T03240184  RH  043%=      5-min Rain = 0
KCO2 150124Z 06006KT 32/18 A3003 RMK A01 T03230184  RH  044%=      5-min Rain = 0
KCO2 150125Z 05006KT 32/18 A3003 RMK A01 T03230184  RH  044%=      5-min Rain = 0
KCO2 150126Z 06006KT 32/18 A3004 RMK A01 T03220184  RH  044%=      5-min Rain = 0
KCO2 150127Z 06006KT 32/18 A3004 RMK A01 T03220184  RH  044%=      5-min Rain = 0
KCO2 150128Z 05006KT 32/18 A3004 RMK A01 T03210184  RH  044%=      5-min Rain = 0
KCO2 150129Z 05006KT 32/18 A3004 RMK A01 T03200184  RH  044%=      5-min Rain = 0
KCO2 150130Z 05006KT 32/18 A3004 RMK A01 T03190183  RH  045%=      5-min Rain = 0
KCO2 150131Z 06005KT 32/18 A3004 RMK A01 T03180183  RH  045%=      5-min Rain = 0
KCO2 150132Z 06006KT 32/18 A3004 RMK A01 T03180183  RH  045%=      5-min Rain = 0
KCO2 150133Z 05007KT 32/18 A3004 RMK A01 T03170182  RH  045%=      5-min Rain = 0
KCO2 150134Z 06006KT 32/18 A3004 RMK A01 T03180182  RH  045%=      5-min Rain = 0
KCO2 150135Z 06007KT 32/18 A3004 RMK A01 T03170182  RH  045%=      5-min Rain = 0
KCO2 150136Z 06007KT 32/18 A3004 RMK A01 T03170182  RH  044%=      5-min Rain = 0
KCO2 150137Z 06007KT 32/18 A3004 RMK A01 T03170182  RH  044%=      5-min Rain = 0
KCO2 150138Z 06007KT 32/18 A3004 RMK A01 T03170182  RH  044%=      5-min Rain = 0
KCO2 150139Z 06008KT 32/18 A3004 RMK A01 T03170182  RH  045%=      5-min Rain = 0
KCO2 150140Z 05007KT 32/18 A3004 RMK A01 T03170181  RH  045%=      5-min Rain = 0
KCO2 150141Z 05007KT 32/18 A3004 RMK A01 T03160181  RH  045%=      5-min Rain = 0
KCO2 150142Z 05006KT 32/18 A3004 RMK A01 T03160181  RH  045%=      5-min Rain = 0
KCO2 150143Z 05006KT 32/18 A3004 RMK A01 T03150182  RH  045%=      5-min Rain = 0
KCO2 150144Z 05007KT 31/18 A3004 RMK A01 T03140181  RH  045%=      5-min Rain = 0
KCO2 150145Z 05007KT 31/18 A3004 RMK A01 T03140181  RH  045%=      5-min Rain = 0
KCO2 150146Z 05007KT 31/18 A3004 RMK A01 T03130182  RH  045%=      5-min Rain = 0
KCO2 150147Z 05007KT 31/18 A3004 RMK A01 T03120181  RH  046%=      5-min Rain = 0
KCO2 150148Z 05006KT 31/18 A3004 RMK A01 T03120182  RH  046%=      5-min Rain = 0
KCO2 150149Z 05007KT 31/18 A3004 RMK A01 T03110182  RH  046%=      5-min Rain = 0
KCO2 150150Z 05006KT 31/18 A3004 RMK A01 T03110182  RH  046%=      5-min Rain = 0
KCO2 150151Z 04007KT 31/18 A3004 RMK A01 T03100182  RH  046%=      5-min Rain = 0
KCO2 150152Z 05007KT 31/18 A3004 RMK A01 T03100182  RH  046%=      5-min Rain = 0
KCO2 150153Z 05006KT 31/18 A3004 RMK A01 T03090182  RH  047%=      5-min Rain = 0
KCO2 150154Z 04007KT 31/18 A3004 RMK A01 T03090182  RH  047%=      5-min Rain = 0
KCO2 150155Z 04006KT 31/18 A3004 RMK A01 T03080182  RH  047%=      5-min Rain = 0
KCO2 150156Z 05006KT 31/18 A3005 RMK A01 T03080181  RH  047%=      5-min Rain = 0
KCO2 150157Z 04006KT 31/18 A3005 RMK A01 T03070181  RH  047%=      5-min Rain = 0
KCO2 150158Z 05006KT 31/18 A3005 RMK A01 T03070181  RH  047%=      5-min Rain = 0
KCO2 150159Z 05006KT 31/18 A3005 RMK A01 T03070182  RH  047%=      5-min Rain = 0
KCO2 150200Z 05007KT 31/18 A3005 RMK A01 T03070182  RH  047%=      5-min Rain = 0
KCO2 150201Z 05007KT 31/18 A3005 RMK A01 T03060182  RH  047%=      5-min Rain = 0
KCO2 150202Z 05007KT 31/18 A3005 RMK A01 T03060181  RH  047%=      5-min Rain = 0
KCO2 150203Z 05007KT 31/18 A3005 RMK A01 T03060182  RH  047%=      5-min Rain = 0
KCO2 150204Z 05007KT 31/18 A3005 RMK A01 T03060182  RH  047%=      5-min Rain = 0
KCO2 150205Z 05006KT 31/18 A3005 RMK A01 T03060181  RH  047%=      5-min Rain = 0
KCO2 150206Z 05007KT 31/18 A3005 RMK A01 T03060181  RH  047%=      5-min Rain = 0
KCO2 150207Z 05007KT 31/18 A3005 RMK A01 T03060181  RH  047%=      5-min Rain = 0
KCO2 150208Z 05007KT 31/18 A3005 RMK A01 T03060181  RH  047%=      5-min Rain = 0
KCO2 150209Z 05007KT 31/18 A3005 RMK A01 T03060181  RH  047%=      5-min Rain = 0
KCO2 150210Z 05007KT 31/18 A3005 RMK A01 T03060181  RH  047%=      5-min Rain = 0
KCO2 150211Z 04007KT 31/18 A3005 RMK A01 T03060181  RH  047%=      5-min Rain = 0
KCO2 150212Z 04007KT 31/18 A3005 RMK A01 T03060181  RH  047%=      5-min Rain = 0
KCO2 150213Z 04007KT 31/18 A3005 RMK A01 T03060181  RH  047%=      5-min Rain = 0
KCO2 150214Z 04007KT 31/18 A3006 RMK A01 T03060181  RH  047%=      5-min Rain = 0
KCO2 150215Z 04007KT 31/18 A3006 RMK A01 T03060181  RH  047%=      5-min Rain = 0
KCO2 150216Z 04007KT 31/18 A3006 RMK A01 T03060181  RH  047%=      5-min Rain = 0
KCO2 150217Z 05007KT 31/18 A3006 RMK A01 T03060181  RH  047%=      5-min Rain = 0
KCO2 150218Z 05007KT 31/18 A3006 RMK A01 T03060181  RH  047%=      5-min Rain = 0
KCO2 150219Z 04007KT 31/18 A3006 RMK A01 T03060180  RH  047%=      5-min Rain = 0
KCO2 150220Z 05007KT 31/18 A3006 RMK A01 T03060181  RH  047%=      5-min Rain = 0
KCO2 150221Z 05007KT 31/18 A3006 RMK A01 T03050181  RH  047%=      5-min Rain = 0
KCO2 150222Z 05007KT 31/18 A3006 RMK A01 T03050181  RH  047%=      5-min Rain = 0
KCO2 150223Z 05007KT 31/18 A3006 RMK A01 T03050181  RH  047%=      5-min Rain = 0
KCO2 150224Z 06007KT 31/18 A3006 RMK A01 T03050181  RH  047%=      5-min Rain = 0
KCO2 150225Z 05007KT 31/18 A3007 RMK A01 T03050181  RH  047%=      5-min Rain = 0
KCO2 150226Z 06007KT 31/18 A3007 RMK A01 T03050181  RH  047%=      5-min Rain = 0
KCO2 150227Z 06007KT 31/18 A3007 RMK A01 T03050181  RH  047%=      5-min Rain = 0
KCO2 150228Z 06007KT 31/18 A3007 RMK A01 T03050181  RH  047%=      5-min Rain = 0
KCO2 150229Z 06007KT 31/18 A3007 RMK A01 T03050181  RH  047%=      5-min Rain = 0
KCO2 150230Z 06007KT 31/18 A3007 RMK A01 T03050181  RH  047%=      5-min Rain = 0
KCO2 150231Z 06006KT 31/18 A3007 RMK A01 T03050181  RH  048%=      5-min Rain = 0
KCO2 150232Z 06007KT 31/18 A3007 RMK A01 T03050182  RH  048%=      5-min Rain = 0
KCO2 150233Z 06006KT 31/18 A3007 RMK A01 T03050182  RH  048%=      5-min Rain = 0
KCO2 150234Z 06007KT 31/18 A3007 RMK A01 T03050182  RH  048%=      5-min Rain = 0
KCO2 150235Z 06007KT 31/18 A3007 RMK A01 T03050182  RH  048%=      5-min Rain = 0
KCO2 150236Z 06007KT 30/18 A3007 RMK A01 T03040181  RH  048%=      5-min Rain = 0
KCO2 150237Z 06007KT 30/18 A3007 RMK A01 T03040182  RH  048%=      5-min Rain = 0
KCO2 150238Z 06007KT 30/18 A3007 RMK A01 T03040182  RH  048%=      5-min Rain = 0
KCO2 150239Z 06007KT 30/18 A3007 RMK A01 T03030182  RH  048%=      5-min Rain = 0
KCO2 150240Z 06007KT 30/18 A3007 RMK A01 T03030182  RH  048%=      5-min Rain = 0
KCO2 150241Z 06007KT 30/18 A3007 RMK A01 T03030182  RH  048%=      5-min Rain = 0
KCO2 150242Z 06008KT 30/18 A3007 RMK A01 T03030182  RH  049%=      5-min Rain = 0
KCO2 150243Z 06007KT 30/18 A3007 RMK A01 T03020182  RH  049%=      5-min Rain = 0
KCO2 150244Z 05007KT 30/18 A3007 RMK A01 T03020182  RH  049%=      5-min Rain = 0
KCO2 150245Z 06007KT 30/18 A3007 RMK A01 T03010182  RH  049%=      5-min Rain = 0
KCO2 150246Z 06007KT 30/18 A3007 RMK A01 T03010182  RH  049%=      5-min Rain = 0
KCO2 150247Z 06007KT 30/18 A3007 RMK A01 T03000182  RH  049%=      5-min Rain = 0
KCO2 150248Z 05007KT 30/18 A3007 RMK A01 T03000183  RH  049%=      5-min Rain = 0
KCO2 150249Z 06007KT 30/18 A3007 RMK A01 T03000183  RH  049%=      5-min Rain = 0
KCO2 150250Z 06007KT 30/18 A3007 RMK A01 T03000183  RH  049%=      5-min Rain = 0
KCO2 150251Z 06007KT 30/18 A3008 RMK A01 T03000183  RH  049%=      5-min Rain = 0
KCO2 150252Z 06007KT 30/18 A3008 RMK A01 T03000183  RH  049%=      5-min Rain = 0
KCO2 150253Z 05007KT 30/18 A3008 RMK A01 T03000183  RH  050%=      5-min Rain = 0
KCO2 150254Z 06007KT 30/18 A3008 RMK A01 T03000183  RH  050%=      5-min Rain = 0
KCO2 150255Z 06006KT 30/18 A3008 RMK A01 T02990183  RH  050%=      5-min Rain = 0
KCO2 150256Z 06007KT 30/18 A3008 RMK A01 T02990183  RH  050%=      5-min Rain = 0
KCO2 150257Z 06007KT 30/18 A3008 RMK A01 T02990183  RH  050%=      5-min Rain = 0
KCO2 150258Z 06007KT 30/18 A3008 RMK A01 T02980183  RH  050%=      5-min Rain = 0
KCO2 150259Z 06007KT 30/18 A3008 RMK A01 T02980183  RH  050%=      5-min Rain = 0
KCO2 150300Z 06007KT 30/18 A3008 RMK A01 T02980183  RH  050%=      5-min Rain = 0
KCO2 150301Z 06007KT 30/18 A3008 RMK A01 T02980183  RH  050%=      5-min Rain = 0
KCO2 150302Z 06007KT 30/18 A3008 RMK A01 T02980183  RH  050%=      5-min Rain = 0
KCO2 150303Z 06007KT 30/18 A3008 RMK A01 T02980183  RH  050%=      5-min Rain = 0
KCO2 150304Z 06006KT 30/18 A3008 RMK A01 T02980184  RH  050%=      5-min Rain = 0
KCO2 150305Z 06007KT 30/18 A3008 RMK A01 T02980184  RH  050%=      5-min Rain = 0
KCO2 150306Z 06007KT 30/18 A3008 RMK A01 T02980184  RH  050%=      5-min Rain = 0
KCO2 150307Z 06007KT 30/18 A3008 RMK A01 T02970184  RH  050%=      5-min Rain = 0
KCO2 150308Z 06006KT 30/18 A3008 RMK A01 T02970184  RH  051%=      5-min Rain = 0
KCO2 150309Z 06007KT 30/18 A3008 RMK A01 T02970184  RH  051%=      5-min Rain = 0
KCO2 150310Z 06007KT 30/18 A3008 RMK A01 T02970184  RH  051%=      5-min Rain = 0
KCO2 150311Z 06007KT 30/18 A3008 RMK A01 T02970184  RH  051%=      5-min Rain = 0
KCO2 150312Z 06007KT 30/19 A3008 RMK A01 T02970185  RH  051%=      5-min Rain = 0
KCO2 150313Z 06007KT 30/18 A3008 RMK A01 T02970184  RH  051%=      5-min Rain = 0
KCO2 150314Z 06007KT 30/18 A3008 RMK A01 T02980184  RH  051%=      5-min Rain = 0
KCO2 150315Z 06007KT 30/18 A3008 RMK A01 T02980184  RH  051%=      5-min Rain = 0
KCO2 150316Z 06007KT 30/18 A3008 RMK A01 T02970184  RH  051%=      5-min Rain = 0
KCO2 150317Z 06007KT 30/19 A3008 RMK A01 T02970185  RH  051%=      5-min Rain = 0
KCO2 150318Z 06006KT 30/18 A3008 RMK A01 T02970184  RH  051%=      5-min Rain = 0
KCO2 150319Z 07007KT 30/18 A3008 RMK A01 T02960184  RH  051%=      5-min Rain = 0
KCO2 150320Z 06007KT 30/18 A3008 RMK A01 T02970184  RH  051%=      5-min Rain = 0
KCO2 150321Z 06007KT 30/18 A3008 RMK A01 T02970184  RH  051%=      5-min Rain = 0
KCO2 150322Z 07007KT 30/18 A3008 RMK A01 T02970184  RH  051%=      5-min Rain = 0
KCO2 150323Z 06008KT 30/18 A3008 RMK A01 T02970184  RH  051%=      5-min Rain = 0
KCO2 150324Z 07007KT 30/18 A3008 RMK A01 T02980184  RH  051%=      5-min Rain = 0
KCO2 150325Z 07008KT 30/19 A3008 RMK A01 T02980185  RH  050%=      5-min Rain = 0
KCO2 150326Z 07007KT 30/18 A3009 RMK A01 T02980184  RH  051%=      5-min Rain = 0
KCO2 150327Z 07007KT 30/18 A3009 RMK A01 T02980184  RH  051%=      5-min Rain = 0
KCO2 150328Z 07008KT 30/18 A3009 RMK A01 T02980184  RH  051%=      5-min Rain = 0
KCO2 150329Z 07008KT 30/19 A3009 RMK A01 T02980185  RH  051%=      5-min Rain = 0
KCO2 150330Z 07008KT 30/19 A3009 RMK A01 T02980185  RH  051%=      5-min Rain = 0
KCO2 150331Z 07007KT 30/19 A3009 RMK A01 T02980185  RH  051%=      5-min Rain = 0
KCO2 150332Z 07007KT 30/19 A3009 RMK A01 T02980185  RH  051%=      5-min Rain = 0
KCO2 150333Z 07007KT 30/19 A3009 RMK A01 T02970185  RH  051%=      5-min Rain = 0
KCO2 150334Z 07007KT 30/19 A3009 RMK A01 T02970185  RH  051%=      5-min Rain = 0
KCO2 150335Z 07007KT 30/19 A3009 RMK A01 T02970185  RH  051%=      5-min Rain = 0
KCO2 150336Z 07008KT 30/19 A3009 RMK A01 T02960185  RH  051%=      5-min Rain = 0
KCO2 150337Z 07008KT 30/19 A3009 RMK A01 T02970185  RH  051%=      5-min Rain = 0
KCO2 150338Z 07007KT 30/19 A3008 RMK A01 T02970185  RH  051%=      5-min Rain = 0
KCO2 150339Z 07007KT 30/19 A3008 RMK A01 T02960185  RH  051%=      5-min Rain = 0
KCO2 150340Z 07007KT 30/19 A3008 RMK A01 T02960185  RH  051%=      5-min Rain = 0
KCO2 150341Z 07008KT 30/19 A3009 RMK A01 T02950185  RH  051%=      5-min Rain = 0
KCO2 150342Z 07007KT 30/19 A3009 RMK A01 T02950185  RH  052%=      5-min Rain = 0
KCO2 150343Z 07007KT 30/19 A3009 RMK A01 T02950185  RH  052%=      5-min Rain = 0
KCO2 150344Z 08007KT 30/19 A3009 RMK A01 T02950185  RH  052%=      5-min Rain = 0
KCO2 150345Z 07007KT 29/19 A3009 RMK A01 T02940185  RH  052%=      5-min Rain = 0
KCO2 150346Z 07008KT 29/19 A3009 RMK A01 T02940185  RH  052%=      5-min Rain = 0
KCO2 150347Z 08007KT 29/19 A3009 RMK A01 T02940185  RH  052%=      5-min Rain = 0
KCO2 150348Z 08007KT 29/19 A3009 RMK A01 T02930185  RH  052%=      5-min Rain = 0
KCO2 150349Z 08008KT 29/19 A3009 RMK A01 T02930185  RH  052%=      5-min Rain = 0
KCO2 150350Z 08007KT 29/19 A3009 RMK A01 T02920185  RH  052%=      5-min Rain = 0
KCO2 150351Z 08007KT 29/19 A3009 RMK A01 T02920185  RH  052%=      5-min Rain = 0
KCO2 150352Z 08007KT 29/19 A3009 RMK A01 T02920185  RH  053%=      5-min Rain = 0
KCO2 150353Z 08007KT 29/19 A3009 RMK A01 T02910185  RH  053%=      5-min Rain = 0
KCO2 150354Z 08007KT 29/19 A3009 RMK A01 T02910185  RH  053%=      5-min Rain = 0
KCO2 150355Z 08007KT 29/19 A3009 RMK A01 T02910185  RH  053%=      5-min Rain = 0
KCO2 150356Z 08007KT 29/19 A3009 RMK A01 T02910185  RH  053%=      5-min Rain = 0
KCO2 150357Z 07007KT 29/19 A3009 RMK A01 T02900185  RH  053%=      5-min Rain = 0
KCO2 150358Z 07007KT 29/19 A3009 RMK A01 T02900185  RH  053%=      5-min Rain = 0
KCO2 150359Z 07006KT 29/19 A3009 RMK A01 T02890185  RH  053%=      5-min Rain = 0
KCO2 150400Z 08007KT 29/19 A3009 RMK A01 T02890185  RH  053%=      5-min Rain = 0
KCO2 150401Z 08006KT 29/19 A3009 RMK A01 T02890185  RH  054%=      5-min Rain = 0
KCO2 150402Z 08006KT 29/19 A3009 RMK A01 T02880185  RH  054%=      5-min Rain = 0
KCO2 150403Z 08007KT 29/19 A3009 RMK A01 T02880185  RH  054%=      5-min Rain = 0
KCO2 150404Z 08006KT 29/19 A3009 RMK A01 T02880186  RH  054%=      5-min Rain = 0
KCO2 150405Z 08006KT 29/19 A3009 RMK A01 T02880185  RH  054%=      5-min Rain = 0
KCO2 150406Z 08006KT 29/19 A3009 RMK A01 T02870185  RH  054%=      5-min Rain = 0
KCO2 150407Z 08007KT 29/19 A3009 RMK A01 T02870185  RH  054%=      5-min Rain = 0
KCO2 150408Z 07007KT 29/19 A3009 RMK A01 T02860186  RH  054%=      5-min Rain = 0
KCO2 150409Z 08006KT 29/19 A3009 RMK A01 T02860186  RH  055%=      5-min Rain = 0
KCO2 150410Z 08007KT 29/19 A3009 RMK A01 T02860186  RH  055%=      5-min Rain = 0
KCO2 150411Z 08007KT 29/19 A3009 RMK A01 T02850186  RH  055%=      5-min Rain = 0
KCO2 150412Z 08006KT 29/19 A3009 RMK A01 T02850186  RH  055%=      5-min Rain = 0
KCO2 150413Z 08007KT 29/19 A3009 RMK A01 T02850186  RH  055%=      5-min Rain = 0
KCO2 150414Z 08006KT 29/19 A3009 RMK A01 T02850186  RH  055%=      5-min Rain = 0
KCO2 150415Z 08006KT 28/19 A3009 RMK A01 T02840186  RH  055%=      5-min Rain = 0
KCO2 150416Z 08006KT 28/19 A301 RMK A01 T02840186  RH  055%=      5-min Rain = 0
KCO2 150417Z 09005KT 28/19 A301 RMK A01 T02830186  RH  056%=      5-min Rain = 0
KCO2 150418Z 09006KT 28/19 A301 RMK A01 T02830186  RH  056%=      5-min Rain = 0
KCO2 150419Z 09006KT 28/19 A301 RMK A01 T02830186  RH  056%=      5-min Rain = 0
KCO2 150420Z 09006KT 28/19 A301 RMK A01 T02830186  RH  056%=      5-min Rain = 0
KCO2 150421Z 10006KT 28/19 A301 RMK A01 T02830186  RH  056%=      5-min Rain = 0
KCO2 150422Z 10006KT 28/19 A301 RMK A01 T02820187  RH  056%=      5-min Rain = 0
KCO2 150423Z 10006KT 28/19 A301 RMK A01 T02820187  RH  056%=      5-min Rain = 0
KCO2 150424Z 10006KT 28/19 A301 RMK A01 T02810187  RH  057%=      5-min Rain = 0
KCO2 150425Z 10006KT 28/19 A301 RMK A01 T02800187  RH  057%=      5-min Rain = 0
KCO2 150426Z 11006KT 28/19 A301 RMK A01 T02800187  RH  057%=      5-min Rain = 0
KCO2 150427Z 11006KT 28/19 A301 RMK A01 T02790187  RH  057%=      5-min Rain = 0
KCO2 150428Z 11006KT 28/19 A301 RMK A01 T02790187  RH  057%=      5-min Rain = 0
KCO2 150429Z 11006KT 28/19 A301 RMK A01 T02780187  RH  058%=      5-min Rain = 0
KCO2 150430Z 11006KT 28/19 A301 RMK A01 T02780188  RH  058%=      5-min Rain = 0
KCO2 150431Z 11006KT 28/19 A301 RMK A01 T02770187  RH  058%=      5-min Rain = 0
KCO2 150432Z 11006KT 28/19 A301 RMK A01 T02770188  RH  058%=      5-min Rain = 0
KCO2 150433Z 11006KT 28/19 A301 RMK A01 T02770187  RH  058%=      5-min Rain = 0
KCO2 150434Z 11006KT 28/19 A301 RMK A01 T02770187  RH  058%=      5-min Rain = 0
KCO2 150435Z 11006KT 28/19 A301 RMK A01 T02770188  RH  058%=      5-min Rain = 0
KCO2 150436Z 11006KT 28/19 A301 RMK A01 T02780188  RH  058%=      5-min Rain = 0
KCO2 150437Z 11006KT 28/19 A301 RMK A01 T02780188  RH  058%=      5-min Rain = 0
KCO2 150438Z 11007KT 28/19 A301 RMK A01 T02800189  RH  058%=      5-min Rain = 0
KCO2 150439Z 11006KT 28/19 A301 RMK A01 T02800189  RH  058%=      5-min Rain = 0
KCO2 150440Z 11006KT 28/19 A301 RMK A01 T02810189  RH  057%=      5-min Rain = 0
KCO2 150441Z 11007KT 28/19 A3009 RMK A01 T02810189  RH  057%=      5-min Rain = 0
KCO2 150442Z 11007KT 28/19 A3009 RMK A01 T02820189  RH  057%=      5-min Rain = 0
KCO2 150443Z 11006KT 28/19 A3009 RMK A01 T02820189  RH  057%=      5-min Rain = 0
KCO2 150444Z 10008KT 28/19 A3009 RMK A01 T02830189  RH  057%=      5-min Rain = 0
KCO2 150445Z 10006KT 28/19 A3009 RMK A01 T02830189  RH  057%=      5-min Rain = 0
KCO2 150446Z 11006KT 28/19 A301 RMK A01 T02840190  RH  057%=      5-min Rain = 0
KCO2 150447Z 10007KT 28/19 A301 RMK A01 T02840190  RH  057%=      5-min Rain = 0
KCO2 150448Z 11006KT 28/19 A301 RMK A01 T02840190  RH  057%=      5-min Rain = 0
KCO2 150449Z 10006KT 29/19 A301 RMK A01 T02850190  RH  056%=      5-min Rain = 0
KCO2 150450Z 10006KT 29/19 A301 RMK A01 T02850190  RH  056%=      5-min Rain = 0
KCO2 150451Z 10006KT 29/19 A301 RMK A01 T02860191  RH  056%=      5-min Rain = 0
KCO2 150452Z 10006KT 29/19 A301 RMK A01 T02860191  RH  056%=      5-min Rain = 0
KCO2 150453Z 10006KT 29/19 A301 RMK A01 T02860191  RH  056%=      5-min Rain = 0
KCO2 150454Z 10006KT 29/19 A301 RMK A01 T02870191  RH  056%=      5-min Rain = 0
KCO2 150455Z 10006KT 29/19 A301 RMK A01 T02860191  RH  056%=      5-min Rain = 0
KCO2 150456Z 10006KT 29/19 A301 RMK A01 T02870191  RH  056%=      5-min Rain = 0
KCO2 150457Z 10006KT 29/19 A301 RMK A01 T02860191  RH  056%=      5-min Rain = 0
KCO2 150458Z 09007KT 29/19 A301 RMK A01 T02870191  RH  056%=      5-min Rain = 0
KCO2 150459Z 09007KT 29/19 A301 RMK A01 T02870191  RH  056%=      5-min Rain = 0

Page generated in 0.1208 seconds.